<?xml version="1.0" encoding="UTF-8" standalone="no" ?>
<gpx xmlns="http://www.topografix.com/GPX/1/1" xmlns:xsi="http://www.w3.org/2001/XMLSchema-instance" xsi:schemaLocation="http://www.topografix.com/GPX/1/1 http://www.topografix.com/GPX/1/1/gpx.xsd" version="1.1" creator="VisuGPX - https://www.visugpx.com">
  <metadata>
    <name>83-M-Lorgues</name>
    <desc><![CDATA[83-M-Lorgues : La Florièye au départ de St Ferréol	]]></desc>
  </metadata>
  <trk>
    <name><![CDATA[2014-01-08-lorgues]]></name>
    <trkseg>
      <trkpt lat="43.50112" lon="6.37536">
        <ele>261.1</ele>
        <time>2014-01-08T12:51:05Z</time>
      </trkpt>
      <trkpt lat="43.50117" lon="6.37546">
        <ele>260.6</ele>
        <time>2014-01-08T12:51:14Z</time>
      </trkpt>
      <trkpt lat="43.50122" lon="6.37556">
        <ele>259.7</ele>
        <time>2014-01-08T12:51:25Z</time>
      </trkpt>
      <trkpt lat="43.50127" lon="6.37565">
        <ele>259.6</ele>
        <time>2014-01-08T12:51:34Z</time>
      </trkpt>
      <trkpt lat="43.50133" lon="6.37573">
        <ele>258.4</ele>
        <time>2014-01-08T12:51:41Z</time>
      </trkpt>
      <trkpt lat="43.50138" lon="6.37582">
        <ele>257.9</ele>
        <time>2014-01-08T12:51:49Z</time>
      </trkpt>
      <trkpt lat="43.50144" lon="6.37589">
        <ele>257</ele>
        <time>2014-01-08T12:51:59Z</time>
      </trkpt>
      <trkpt lat="43.50149" lon="6.37599">
        <ele>255.5</ele>
        <time>2014-01-08T12:52:09Z</time>
      </trkpt>
      <trkpt lat="43.5015" lon="6.376">
        <ele>255.4</ele>
        <time>2014-01-08T12:52:10Z</time>
      </trkpt>
      <trkpt lat="43.5016" lon="6.37617">
        <ele>253.4</ele>
        <time>2014-01-08T12:52:25Z</time>
      </trkpt>
      <trkpt lat="43.50167" lon="6.37624">
        <ele>253.9</ele>
        <time>2014-01-08T12:52:33Z</time>
      </trkpt>
      <trkpt lat="43.50172" lon="6.37633">
        <ele>255</ele>
        <time>2014-01-08T12:52:41Z</time>
      </trkpt>
      <trkpt lat="43.50178" lon="6.3764">
        <ele>254.5</ele>
        <time>2014-01-08T12:52:47Z</time>
      </trkpt>
      <trkpt lat="43.50183" lon="6.3765">
        <ele>253.2</ele>
        <time>2014-01-08T12:52:55Z</time>
      </trkpt>
      <trkpt lat="43.50186" lon="6.37662">
        <ele>251.7</ele>
        <time>2014-01-08T12:53:04Z</time>
      </trkpt>
      <trkpt lat="43.50188" lon="6.37674">
        <ele>250.9</ele>
        <time>2014-01-08T12:53:14Z</time>
      </trkpt>
      <trkpt lat="43.50188" lon="6.37674">
        <ele>250.9</ele>
        <time>2014-01-08T12:53:15Z</time>
      </trkpt>
      <trkpt lat="43.5019" lon="6.37696">
        <ele>248.2</ele>
        <time>2014-01-08T12:53:32Z</time>
      </trkpt>
      <trkpt lat="43.5019" lon="6.37708">
        <ele>246.9</ele>
        <time>2014-01-08T12:53:41Z</time>
      </trkpt>
      <trkpt lat="43.5019" lon="6.3772">
        <ele>247.1</ele>
        <time>2014-01-08T12:53:50Z</time>
      </trkpt>
      <trkpt lat="43.50192" lon="6.37731">
        <ele>245.3</ele>
        <time>2014-01-08T12:53:57Z</time>
      </trkpt>
      <trkpt lat="43.50193" lon="6.37743">
        <ele>245.4</ele>
        <time>2014-01-08T12:54:06Z</time>
      </trkpt>
      <trkpt lat="43.50197" lon="6.37753">
        <ele>244.8</ele>
        <time>2014-01-08T12:54:13Z</time>
      </trkpt>
      <trkpt lat="43.502" lon="6.37764">
        <ele>245.9</ele>
        <time>2014-01-08T12:54:20Z</time>
      </trkpt>
      <trkpt lat="43.502" lon="6.37765">
        <ele>246.2</ele>
        <time>2014-01-08T12:54:21Z</time>
      </trkpt>
      <trkpt lat="43.50206" lon="6.37784">
        <ele>244.6</ele>
        <time>2014-01-08T12:54:34Z</time>
      </trkpt>
      <trkpt lat="43.50207" lon="6.37796">
        <ele>244.2</ele>
        <time>2014-01-08T12:54:41Z</time>
      </trkpt>
      <trkpt lat="43.50208" lon="6.37807">
        <ele>243.6</ele>
        <time>2014-01-08T12:54:49Z</time>
      </trkpt>
      <trkpt lat="43.5021" lon="6.37818">
        <ele>243.3</ele>
        <time>2014-01-08T12:54:56Z</time>
      </trkpt>
      <trkpt lat="43.50211" lon="6.3783">
        <ele>243.4</ele>
        <time>2014-01-08T12:55:03Z</time>
      </trkpt>
      <trkpt lat="43.50211" lon="6.37842">
        <ele>243.1</ele>
        <time>2014-01-08T12:55:11Z</time>
      </trkpt>
      <trkpt lat="43.50212" lon="6.37854">
        <ele>242.1</ele>
        <time>2014-01-08T12:55:20Z</time>
      </trkpt>
      <trkpt lat="43.50212" lon="6.37865">
        <ele>241.6</ele>
        <time>2014-01-08T12:55:29Z</time>
      </trkpt>
      <trkpt lat="43.50213" lon="6.37867">
        <ele>241.3</ele>
        <time>2014-01-08T12:55:30Z</time>
      </trkpt>
      <trkpt lat="43.50214" lon="6.37888">
        <ele>240.9</ele>
        <time>2014-01-08T12:55:44Z</time>
      </trkpt>
      <trkpt lat="43.50216" lon="6.37899">
        <ele>239.4</ele>
        <time>2014-01-08T12:55:53Z</time>
      </trkpt>
      <trkpt lat="43.5022" lon="6.37909">
        <ele>238.8</ele>
        <time>2014-01-08T12:56:02Z</time>
      </trkpt>
      <trkpt lat="43.50226" lon="6.37918">
        <ele>237.9</ele>
        <time>2014-01-08T12:56:09Z</time>
      </trkpt>
      <trkpt lat="43.50231" lon="6.37927">
        <ele>235.8</ele>
        <time>2014-01-08T12:56:18Z</time>
      </trkpt>
      <trkpt lat="43.50237" lon="6.37935">
        <ele>233.8</ele>
        <time>2014-01-08T12:56:28Z</time>
      </trkpt>
      <trkpt lat="43.50244" lon="6.37942">
        <ele>233.1</ele>
        <time>2014-01-08T12:56:40Z</time>
      </trkpt>
      <trkpt lat="43.50245" lon="6.37942">
        <ele>233.1</ele>
        <time>2014-01-08T12:56:41Z</time>
      </trkpt>
      <trkpt lat="43.50254" lon="6.37958">
        <ele>230.5</ele>
        <time>2014-01-08T12:57:33Z</time>
      </trkpt>
      <trkpt lat="43.50248" lon="6.37967">
        <ele>228.3</ele>
        <time>2014-01-08T12:57:45Z</time>
      </trkpt>
      <trkpt lat="43.50247" lon="6.37967">
        <ele>227.8</ele>
        <time>2014-01-08T12:57:46Z</time>
      </trkpt>
      <trkpt lat="43.50241" lon="6.37989">
        <ele>225.5</ele>
        <time>2014-01-08T12:58:10Z</time>
      </trkpt>
      <trkpt lat="43.50242" lon="6.38001">
        <ele>223.8</ele>
        <time>2014-01-08T12:58:20Z</time>
      </trkpt>
      <trkpt lat="43.50238" lon="6.3801">
        <ele>221.9</ele>
        <time>2014-01-08T12:58:31Z</time>
      </trkpt>
      <trkpt lat="43.50233" lon="6.3802">
        <ele>220.1</ele>
        <time>2014-01-08T12:58:45Z</time>
      </trkpt>
      <trkpt lat="43.50231" lon="6.38032">
        <ele>218.9</ele>
        <time>2014-01-08T12:58:57Z</time>
      </trkpt>
      <trkpt lat="43.5023" lon="6.38032">
        <ele>218.6</ele>
        <time>2014-01-08T12:58:58Z</time>
      </trkpt>
      <trkpt lat="43.50218" lon="6.38048">
        <ele>216.4</ele>
        <time>2014-01-08T12:59:19Z</time>
      </trkpt>
      <trkpt lat="43.50211" lon="6.38055">
        <ele>214.6</ele>
        <time>2014-01-08T12:59:31Z</time>
      </trkpt>
      <trkpt lat="43.50204" lon="6.38063">
        <ele>213.4</ele>
        <time>2014-01-08T12:59:46Z</time>
      </trkpt>
      <trkpt lat="43.50198" lon="6.3807">
        <ele>212</ele>
        <time>2014-01-08T12:59:53Z</time>
      </trkpt>
      <trkpt lat="43.50193" lon="6.3808">
        <ele>210</ele>
        <time>2014-01-08T13:00:05Z</time>
      </trkpt>
      <trkpt lat="43.50193" lon="6.38081">
        <ele>210</ele>
        <time>2014-01-08T13:00:06Z</time>
      </trkpt>
      <trkpt lat="43.50185" lon="6.38099">
        <ele>206.8</ele>
        <time>2014-01-08T13:00:31Z</time>
      </trkpt>
      <trkpt lat="43.5018" lon="6.3811">
        <ele>205.6</ele>
        <time>2014-01-08T13:00:42Z</time>
      </trkpt>
      <trkpt lat="43.50179" lon="6.38122">
        <ele>204.5</ele>
        <time>2014-01-08T13:01:14Z</time>
      </trkpt>
      <trkpt lat="43.50179" lon="6.38122">
        <ele>204.5</ele>
        <time>2014-01-08T13:01:15Z</time>
      </trkpt>
      <trkpt lat="43.50182" lon="6.38145">
        <ele>203.8</ele>
        <time>2014-01-08T13:01:38Z</time>
      </trkpt>
      <trkpt lat="43.50181" lon="6.38156">
        <ele>203.3</ele>
        <time>2014-01-08T13:01:47Z</time>
      </trkpt>
      <trkpt lat="43.50179" lon="6.38168">
        <ele>203</ele>
        <time>2014-01-08T13:01:58Z</time>
      </trkpt>
      <trkpt lat="43.50178" lon="6.3818">
        <ele>203.3</ele>
        <time>2014-01-08T13:02:07Z</time>
      </trkpt>
      <trkpt lat="43.50175" lon="6.38191">
        <ele>202.4</ele>
        <time>2014-01-08T13:02:17Z</time>
      </trkpt>
      <trkpt lat="43.50175" lon="6.38192">
        <ele>202.4</ele>
        <time>2014-01-08T13:02:18Z</time>
      </trkpt>
      <trkpt lat="43.50177" lon="6.38215">
        <ele>201.5</ele>
        <time>2014-01-08T13:02:36Z</time>
      </trkpt>
      <trkpt lat="43.50177" lon="6.38227">
        <ele>200.8</ele>
        <time>2014-01-08T13:02:46Z</time>
      </trkpt>
      <trkpt lat="43.50175" lon="6.38238">
        <ele>200.9</ele>
        <time>2014-01-08T13:02:54Z</time>
      </trkpt>
      <trkpt lat="43.50171" lon="6.38249">
        <ele>200.2</ele>
        <time>2014-01-08T13:03:02Z</time>
      </trkpt>
      <trkpt lat="43.50171" lon="6.38261">
        <ele>199</ele>
        <time>2014-01-08T13:03:12Z</time>
      </trkpt>
      <trkpt lat="43.50172" lon="6.38273">
        <ele>196.7</ele>
        <time>2014-01-08T13:03:23Z</time>
      </trkpt>
      <trkpt lat="43.50172" lon="6.38274">
        <ele>196.7</ele>
        <time>2014-01-08T13:03:24Z</time>
      </trkpt>
      <trkpt lat="43.50175" lon="6.38297">
        <ele>196.6</ele>
        <time>2014-01-08T13:03:46Z</time>
      </trkpt>
      <trkpt lat="43.50175" lon="6.38308">
        <ele>195</ele>
        <time>2014-01-08T13:03:56Z</time>
      </trkpt>
      <trkpt lat="43.50176" lon="6.3832">
        <ele>194.9</ele>
        <time>2014-01-08T13:04:05Z</time>
      </trkpt>
      <trkpt lat="43.50178" lon="6.3833">
        <ele>194.7</ele>
        <time>2014-01-08T13:04:12Z</time>
      </trkpt>
      <trkpt lat="43.50178" lon="6.38342">
        <ele>194.7</ele>
        <time>2014-01-08T13:04:24Z</time>
      </trkpt>
      <trkpt lat="43.50178" lon="6.38343">
        <ele>194.7</ele>
        <time>2014-01-08T13:04:25Z</time>
      </trkpt>
      <trkpt lat="43.50179" lon="6.38366">
        <ele>194</ele>
        <time>2014-01-08T13:04:45Z</time>
      </trkpt>
      <trkpt lat="43.50182" lon="6.38377">
        <ele>193.8</ele>
        <time>2014-01-08T13:04:56Z</time>
      </trkpt>
      <trkpt lat="43.50181" lon="6.38388">
        <ele>194.1</ele>
        <time>2014-01-08T13:05:05Z</time>
      </trkpt>
      <trkpt lat="43.50179" lon="6.384">
        <ele>193</ele>
        <time>2014-01-08T13:05:17Z</time>
      </trkpt>
      <trkpt lat="43.50177" lon="6.38411">
        <ele>192</ele>
        <time>2014-01-08T13:05:29Z</time>
      </trkpt>
      <trkpt lat="43.50176" lon="6.38412">
        <ele>191.8</ele>
        <time>2014-01-08T13:05:30Z</time>
      </trkpt>
      <trkpt lat="43.50176" lon="6.38435">
        <ele>191</ele>
        <time>2014-01-08T13:06:00Z</time>
      </trkpt>
      <trkpt lat="43.50174" lon="6.38445">
        <ele>191</ele>
        <time>2014-01-08T13:06:09Z</time>
      </trkpt>
      <trkpt lat="43.50175" lon="6.38457">
        <ele>190.4</ele>
        <time>2014-01-08T13:06:21Z</time>
      </trkpt>
      <trkpt lat="43.50175" lon="6.38469">
        <ele>190.9</ele>
        <time>2014-01-08T13:06:31Z</time>
      </trkpt>
      <trkpt lat="43.50174" lon="6.38471">
        <ele>191</ele>
        <time>2014-01-08T13:06:32Z</time>
      </trkpt>
      <trkpt lat="43.50171" lon="6.38493">
        <ele>189.7</ele>
        <time>2014-01-08T13:06:47Z</time>
      </trkpt>
      <trkpt lat="43.50169" lon="6.38505">
        <ele>189.1</ele>
        <time>2014-01-08T13:06:56Z</time>
      </trkpt>
      <trkpt lat="43.50168" lon="6.38516">
        <ele>189.1</ele>
        <time>2014-01-08T13:07:03Z</time>
      </trkpt>
      <trkpt lat="43.50168" lon="6.38528">
        <ele>188.1</ele>
        <time>2014-01-08T13:07:09Z</time>
      </trkpt>
      <trkpt lat="43.50167" lon="6.3854">
        <ele>188</ele>
        <time>2014-01-08T13:07:16Z</time>
      </trkpt>
      <trkpt lat="43.50167" lon="6.38551">
        <ele>188.3</ele>
        <time>2014-01-08T13:07:23Z</time>
      </trkpt>
      <trkpt lat="43.50167" lon="6.38562">
        <ele>187.4</ele>
        <time>2014-01-08T13:07:29Z</time>
      </trkpt>
      <trkpt lat="43.50166" lon="6.38575">
        <ele>186.2</ele>
        <time>2014-01-08T13:07:36Z</time>
      </trkpt>
      <trkpt lat="43.50166" lon="6.38576">
        <ele>186.4</ele>
        <time>2014-01-08T13:07:37Z</time>
      </trkpt>
      <trkpt lat="43.50164" lon="6.38598">
        <ele>185.3</ele>
        <time>2014-01-08T13:07:51Z</time>
      </trkpt>
      <trkpt lat="43.50162" lon="6.3861">
        <ele>184.8</ele>
        <time>2014-01-08T13:07:59Z</time>
      </trkpt>
      <trkpt lat="43.5016" lon="6.3862">
        <ele>183.8</ele>
        <time>2014-01-08T13:08:05Z</time>
      </trkpt>
      <trkpt lat="43.50156" lon="6.3863">
        <ele>184.4</ele>
        <time>2014-01-08T13:08:11Z</time>
      </trkpt>
      <trkpt lat="43.50151" lon="6.38639">
        <ele>184</ele>
        <time>2014-01-08T13:08:17Z</time>
      </trkpt>
      <trkpt lat="43.50148" lon="6.38649">
        <ele>183</ele>
        <time>2014-01-08T13:08:23Z</time>
      </trkpt>
      <trkpt lat="43.50144" lon="6.3866">
        <ele>183</ele>
        <time>2014-01-08T13:08:30Z</time>
      </trkpt>
      <trkpt lat="43.50141" lon="6.3867">
        <ele>182.9</ele>
        <time>2014-01-08T13:08:37Z</time>
      </trkpt>
      <trkpt lat="43.50141" lon="6.38672">
        <ele>183</ele>
        <time>2014-01-08T13:08:38Z</time>
      </trkpt>
      <trkpt lat="43.50138" lon="6.38691">
        <ele>181.2</ele>
        <time>2014-01-08T13:08:49Z</time>
      </trkpt>
      <trkpt lat="43.50136" lon="6.38702">
        <ele>181.5</ele>
        <time>2014-01-08T13:08:55Z</time>
      </trkpt>
      <trkpt lat="43.50135" lon="6.38713">
        <ele>180.6</ele>
        <time>2014-01-08T13:09:01Z</time>
      </trkpt>
      <trkpt lat="43.50133" lon="6.38724">
        <ele>180.7</ele>
        <time>2014-01-08T13:09:07Z</time>
      </trkpt>
      <trkpt lat="43.50132" lon="6.38735">
        <ele>180.5</ele>
        <time>2014-01-08T13:09:14Z</time>
      </trkpt>
      <trkpt lat="43.5013" lon="6.38747">
        <ele>180</ele>
        <time>2014-01-08T13:09:21Z</time>
      </trkpt>
      <trkpt lat="43.50127" lon="6.38759">
        <ele>179.2</ele>
        <time>2014-01-08T13:09:31Z</time>
      </trkpt>
      <trkpt lat="43.50131" lon="6.38769">
        <ele>180.1</ele>
        <time>2014-01-08T13:12:42Z</time>
      </trkpt>
      <trkpt lat="43.50132" lon="6.3877">
        <ele>180</ele>
        <time>2014-01-08T13:12:43Z</time>
      </trkpt>
      <trkpt lat="43.50145" lon="6.38783">
        <ele>180.5</ele>
        <time>2014-01-08T13:12:56Z</time>
      </trkpt>
      <trkpt lat="43.50152" lon="6.38789">
        <ele>179.7</ele>
        <time>2014-01-08T13:13:04Z</time>
      </trkpt>
      <trkpt lat="43.50159" lon="6.38794">
        <ele>179.9</ele>
        <time>2014-01-08T13:13:11Z</time>
      </trkpt>
      <trkpt lat="43.50167" lon="6.388">
        <ele>179.9</ele>
        <time>2014-01-08T13:13:19Z</time>
      </trkpt>
      <trkpt lat="43.50174" lon="6.38805">
        <ele>180.1</ele>
        <time>2014-01-08T13:13:27Z</time>
      </trkpt>
      <trkpt lat="43.50182" lon="6.3881">
        <ele>180.6</ele>
        <time>2014-01-08T13:13:34Z</time>
      </trkpt>
      <trkpt lat="43.5019" lon="6.38815">
        <ele>180.7</ele>
        <time>2014-01-08T13:13:41Z</time>
      </trkpt>
      <trkpt lat="43.50198" lon="6.3882">
        <ele>181.1</ele>
        <time>2014-01-08T13:13:48Z</time>
      </trkpt>
      <trkpt lat="43.50198" lon="6.38821">
        <ele>181.2</ele>
        <time>2014-01-08T13:13:49Z</time>
      </trkpt>
      <trkpt lat="43.50212" lon="6.38832">
        <ele>180.5</ele>
        <time>2014-01-08T13:14:03Z</time>
      </trkpt>
      <trkpt lat="43.50213" lon="6.38843">
        <ele>179.9</ele>
        <time>2014-01-08T13:14:10Z</time>
      </trkpt>
      <trkpt lat="43.50212" lon="6.38855">
        <ele>179.2</ele>
        <time>2014-01-08T13:14:18Z</time>
      </trkpt>
      <trkpt lat="43.50212" lon="6.38866">
        <ele>178.2</ele>
        <time>2014-01-08T13:14:24Z</time>
      </trkpt>
      <trkpt lat="43.50211" lon="6.38877">
        <ele>177.9</ele>
        <time>2014-01-08T13:14:31Z</time>
      </trkpt>
      <trkpt lat="43.5021" lon="6.38889">
        <ele>178.9</ele>
        <time>2014-01-08T13:14:38Z</time>
      </trkpt>
      <trkpt lat="43.50209" lon="6.389">
        <ele>177.7</ele>
        <time>2014-01-08T13:14:45Z</time>
      </trkpt>
      <trkpt lat="43.50206" lon="6.38911">
        <ele>178.2</ele>
        <time>2014-01-08T13:14:52Z</time>
      </trkpt>
      <trkpt lat="43.50206" lon="6.38913">
        <ele>178.2</ele>
        <time>2014-01-08T13:14:53Z</time>
      </trkpt>
      <trkpt lat="43.50201" lon="6.38934">
        <ele>177.5</ele>
        <time>2014-01-08T13:15:07Z</time>
      </trkpt>
      <trkpt lat="43.50199" lon="6.38946">
        <ele>177.7</ele>
        <time>2014-01-08T13:15:15Z</time>
      </trkpt>
      <trkpt lat="43.50197" lon="6.38959">
        <ele>177.9</ele>
        <time>2014-01-08T13:15:22Z</time>
      </trkpt>
      <trkpt lat="43.50196" lon="6.3897">
        <ele>178</ele>
        <time>2014-01-08T13:15:28Z</time>
      </trkpt>
      <trkpt lat="43.50194" lon="6.38981">
        <ele>178.1</ele>
        <time>2014-01-08T13:15:34Z</time>
      </trkpt>
      <trkpt lat="43.50192" lon="6.38992">
        <ele>179</ele>
        <time>2014-01-08T13:15:41Z</time>
      </trkpt>
      <trkpt lat="43.50189" lon="6.39004">
        <ele>178.6</ele>
        <time>2014-01-08T13:15:48Z</time>
      </trkpt>
      <trkpt lat="43.50187" lon="6.39016">
        <ele>179.5</ele>
        <time>2014-01-08T13:15:55Z</time>
      </trkpt>
      <trkpt lat="43.50187" lon="6.39017">
        <ele>179.6</ele>
        <time>2014-01-08T13:15:56Z</time>
      </trkpt>
      <trkpt lat="43.50183" lon="6.39038">
        <ele>180.3</ele>
        <time>2014-01-08T13:16:09Z</time>
      </trkpt>
      <trkpt lat="43.50182" lon="6.39049">
        <ele>180.5</ele>
        <time>2014-01-08T13:16:16Z</time>
      </trkpt>
      <trkpt lat="43.5018" lon="6.3906">
        <ele>181.6</ele>
        <time>2014-01-08T13:16:24Z</time>
      </trkpt>
      <trkpt lat="43.50178" lon="6.39072">
        <ele>182</ele>
        <time>2014-01-08T13:16:33Z</time>
      </trkpt>
      <trkpt lat="43.50175" lon="6.39083">
        <ele>183.6</ele>
        <time>2014-01-08T13:16:44Z</time>
      </trkpt>
      <trkpt lat="43.50174" lon="6.39094">
        <ele>184.3</ele>
        <time>2014-01-08T13:16:54Z</time>
      </trkpt>
      <trkpt lat="43.50171" lon="6.39106">
        <ele>184.7</ele>
        <time>2014-01-08T13:17:01Z</time>
      </trkpt>
      <trkpt lat="43.5017" lon="6.39107">
        <ele>184.9</ele>
        <time>2014-01-08T13:17:02Z</time>
      </trkpt>
      <trkpt lat="43.50167" lon="6.39127">
        <ele>186.2</ele>
        <time>2014-01-08T13:17:16Z</time>
      </trkpt>
      <trkpt lat="43.50167" lon="6.39139">
        <ele>186.4</ele>
        <time>2014-01-08T13:17:23Z</time>
      </trkpt>
      <trkpt lat="43.50166" lon="6.39151">
        <ele>186</ele>
        <time>2014-01-08T13:17:30Z</time>
      </trkpt>
      <trkpt lat="43.50166" lon="6.39163">
        <ele>185</ele>
        <time>2014-01-08T13:17:38Z</time>
      </trkpt>
      <trkpt lat="43.50164" lon="6.39174">
        <ele>184.2</ele>
        <time>2014-01-08T13:17:46Z</time>
      </trkpt>
      <trkpt lat="43.50162" lon="6.39186">
        <ele>183.2</ele>
        <time>2014-01-08T13:17:53Z</time>
      </trkpt>
      <trkpt lat="43.50161" lon="6.39196">
        <ele>183.2</ele>
        <time>2014-01-08T13:18:00Z</time>
      </trkpt>
      <trkpt lat="43.5016" lon="6.39208">
        <ele>183.1</ele>
        <time>2014-01-08T13:18:06Z</time>
      </trkpt>
      <trkpt lat="43.5016" lon="6.39209">
        <ele>182.5</ele>
        <time>2014-01-08T13:18:07Z</time>
      </trkpt>
      <trkpt lat="43.50158" lon="6.39231">
        <ele>183.1</ele>
        <time>2014-01-08T13:18:19Z</time>
      </trkpt>
      <trkpt lat="43.50157" lon="6.39242">
        <ele>183.2</ele>
        <time>2014-01-08T13:18:25Z</time>
      </trkpt>
      <trkpt lat="43.50155" lon="6.39253">
        <ele>182.9</ele>
        <time>2014-01-08T13:18:31Z</time>
      </trkpt>
      <trkpt lat="43.50152" lon="6.39264">
        <ele>183.2</ele>
        <time>2014-01-08T13:18:39Z</time>
      </trkpt>
      <trkpt lat="43.50149" lon="6.39274">
        <ele>182.8</ele>
        <time>2014-01-08T13:18:46Z</time>
      </trkpt>
      <trkpt lat="43.50144" lon="6.39283">
        <ele>183.2</ele>
        <time>2014-01-08T13:18:53Z</time>
      </trkpt>
      <trkpt lat="43.5014" lon="6.39292">
        <ele>183.2</ele>
        <time>2014-01-08T13:18:59Z</time>
      </trkpt>
      <trkpt lat="43.50136" lon="6.39301">
        <ele>184.1</ele>
        <time>2014-01-08T13:19:05Z</time>
      </trkpt>
      <trkpt lat="43.50132" lon="6.39311">
        <ele>183.6</ele>
        <time>2014-01-08T13:19:11Z</time>
      </trkpt>
      <trkpt lat="43.50131" lon="6.39312">
        <ele>184.1</ele>
        <time>2014-01-08T13:19:12Z</time>
      </trkpt>
      <trkpt lat="43.50123" lon="6.3933">
        <ele>185.4</ele>
        <time>2014-01-08T13:19:24Z</time>
      </trkpt>
      <trkpt lat="43.5012" lon="6.3934">
        <ele>184.5</ele>
        <time>2014-01-08T13:19:31Z</time>
      </trkpt>
      <trkpt lat="43.50118" lon="6.39351">
        <ele>183.6</ele>
        <time>2014-01-08T13:19:38Z</time>
      </trkpt>
      <trkpt lat="43.50116" lon="6.39363">
        <ele>184</ele>
        <time>2014-01-08T13:19:45Z</time>
      </trkpt>
      <trkpt lat="43.50116" lon="6.39374">
        <ele>183.3</ele>
        <time>2014-01-08T13:19:52Z</time>
      </trkpt>
      <trkpt lat="43.50117" lon="6.39385">
        <ele>181.3</ele>
        <time>2014-01-08T13:19:59Z</time>
      </trkpt>
      <trkpt lat="43.50119" lon="6.39395">
        <ele>180.7</ele>
        <time>2014-01-08T13:20:06Z</time>
      </trkpt>
      <trkpt lat="43.50122" lon="6.39406">
        <ele>178.9</ele>
        <time>2014-01-08T13:20:13Z</time>
      </trkpt>
      <trkpt lat="43.50123" lon="6.39408">
        <ele>179.2</ele>
        <time>2014-01-08T13:20:14Z</time>
      </trkpt>
      <trkpt lat="43.5013" lon="6.39427">
        <ele>179.2</ele>
        <time>2014-01-08T13:20:27Z</time>
      </trkpt>
      <trkpt lat="43.50133" lon="6.39438">
        <ele>177.7</ele>
        <time>2014-01-08T13:20:35Z</time>
      </trkpt>
      <trkpt lat="43.50136" lon="6.39448">
        <ele>175.4</ele>
        <time>2014-01-08T13:20:42Z</time>
      </trkpt>
      <trkpt lat="43.50139" lon="6.39459">
        <ele>175.7</ele>
        <time>2014-01-08T13:20:48Z</time>
      </trkpt>
      <trkpt lat="43.50141" lon="6.39471">
        <ele>173.7</ele>
        <time>2014-01-08T13:20:56Z</time>
      </trkpt>
      <trkpt lat="43.5014" lon="6.39481">
        <ele>174</ele>
        <time>2014-01-08T13:21:03Z</time>
      </trkpt>
      <trkpt lat="43.50142" lon="6.39492">
        <ele>173.2</ele>
        <time>2014-01-08T13:21:09Z</time>
      </trkpt>
      <trkpt lat="43.50142" lon="6.39504">
        <ele>172.3</ele>
        <time>2014-01-08T13:21:16Z</time>
      </trkpt>
      <trkpt lat="43.50142" lon="6.39505">
        <ele>172.4</ele>
        <time>2014-01-08T13:21:17Z</time>
      </trkpt>
      <trkpt lat="43.50145" lon="6.39527">
        <ele>172</ele>
        <time>2014-01-08T13:21:30Z</time>
      </trkpt>
      <trkpt lat="43.50145" lon="6.39538">
        <ele>172</ele>
        <time>2014-01-08T13:21:36Z</time>
      </trkpt>
      <trkpt lat="43.50147" lon="6.3955">
        <ele>172.2</ele>
        <time>2014-01-08T13:21:43Z</time>
      </trkpt>
      <trkpt lat="43.50147" lon="6.39561">
        <ele>171.5</ele>
        <time>2014-01-08T13:21:50Z</time>
      </trkpt>
      <trkpt lat="43.50149" lon="6.39572">
        <ele>171.4</ele>
        <time>2014-01-08T13:21:56Z</time>
      </trkpt>
      <trkpt lat="43.5015" lon="6.39583">
        <ele>170.1</ele>
        <time>2014-01-08T13:22:02Z</time>
      </trkpt>
      <trkpt lat="43.5015" lon="6.39594">
        <ele>168.8</ele>
        <time>2014-01-08T13:22:09Z</time>
      </trkpt>
      <trkpt lat="43.50151" lon="6.39606">
        <ele>168.4</ele>
        <time>2014-01-08T13:22:16Z</time>
      </trkpt>
      <trkpt lat="43.50154" lon="6.39616">
        <ele>167.2</ele>
        <time>2014-01-08T13:22:22Z</time>
      </trkpt>
      <trkpt lat="43.50154" lon="6.39618">
        <ele>167.3</ele>
        <time>2014-01-08T13:22:23Z</time>
      </trkpt>
      <trkpt lat="43.50156" lon="6.39637">
        <ele>166.7</ele>
        <time>2014-01-08T13:22:35Z</time>
      </trkpt>
      <trkpt lat="43.50156" lon="6.39649">
        <ele>164.6</ele>
        <time>2014-01-08T13:22:42Z</time>
      </trkpt>
      <trkpt lat="43.50156" lon="6.3966">
        <ele>165.4</ele>
        <time>2014-01-08T13:22:48Z</time>
      </trkpt>
      <trkpt lat="43.50157" lon="6.39671">
        <ele>164.5</ele>
        <time>2014-01-08T13:22:55Z</time>
      </trkpt>
      <trkpt lat="43.50157" lon="6.39682">
        <ele>163.5</ele>
        <time>2014-01-08T13:23:01Z</time>
      </trkpt>
      <trkpt lat="43.50157" lon="6.39693">
        <ele>162.4</ele>
        <time>2014-01-08T13:23:07Z</time>
      </trkpt>
      <trkpt lat="43.50156" lon="6.39704">
        <ele>162.6</ele>
        <time>2014-01-08T13:23:14Z</time>
      </trkpt>
      <trkpt lat="43.50153" lon="6.39716">
        <ele>162.3</ele>
        <time>2014-01-08T13:23:21Z</time>
      </trkpt>
      <trkpt lat="43.50153" lon="6.39728">
        <ele>162.1</ele>
        <time>2014-01-08T13:23:27Z</time>
      </trkpt>
      <trkpt lat="43.50153" lon="6.3973">
        <ele>162</ele>
        <time>2014-01-08T13:23:28Z</time>
      </trkpt>
      <trkpt lat="43.50154" lon="6.39752">
        <ele>160.7</ele>
        <time>2014-01-08T13:23:42Z</time>
      </trkpt>
      <trkpt lat="43.50153" lon="6.39763">
        <ele>159.3</ele>
        <time>2014-01-08T13:23:49Z</time>
      </trkpt>
      <trkpt lat="43.50153" lon="6.39775">
        <ele>159.1</ele>
        <time>2014-01-08T13:23:56Z</time>
      </trkpt>
      <trkpt lat="43.50153" lon="6.39785">
        <ele>157.6</ele>
        <time>2014-01-08T13:24:02Z</time>
      </trkpt>
      <trkpt lat="43.50152" lon="6.39797">
        <ele>156.5</ele>
        <time>2014-01-08T13:24:09Z</time>
      </trkpt>
      <trkpt lat="43.50149" lon="6.39808">
        <ele>156.3</ele>
        <time>2014-01-08T13:24:16Z</time>
      </trkpt>
      <trkpt lat="43.50145" lon="6.39818">
        <ele>155.3</ele>
        <time>2014-01-08T13:24:23Z</time>
      </trkpt>
      <trkpt lat="43.50147" lon="6.39829">
        <ele>154.5</ele>
        <time>2014-01-08T13:24:30Z</time>
      </trkpt>
      <trkpt lat="43.50147" lon="6.39831">
        <ele>154.7</ele>
        <time>2014-01-08T13:24:31Z</time>
      </trkpt>
      <trkpt lat="43.50148" lon="6.39852">
        <ele>153.2</ele>
        <time>2014-01-08T13:24:42Z</time>
      </trkpt>
      <trkpt lat="43.5015" lon="6.39863">
        <ele>153.7</ele>
        <time>2014-01-08T13:24:47Z</time>
      </trkpt>
      <trkpt lat="43.50149" lon="6.39874">
        <ele>153.3</ele>
        <time>2014-01-08T13:24:54Z</time>
      </trkpt>
      <trkpt lat="43.50148" lon="6.39886">
        <ele>153</ele>
        <time>2014-01-08T13:25:03Z</time>
      </trkpt>
      <trkpt lat="43.50149" lon="6.39898">
        <ele>151.4</ele>
        <time>2014-01-08T13:25:10Z</time>
      </trkpt>
      <trkpt lat="43.50148" lon="6.39909">
        <ele>150.9</ele>
        <time>2014-01-08T13:25:17Z</time>
      </trkpt>
      <trkpt lat="43.50149" lon="6.3992">
        <ele>150.6</ele>
        <time>2014-01-08T13:25:23Z</time>
      </trkpt>
      <trkpt lat="43.50153" lon="6.39929">
        <ele>149.4</ele>
        <time>2014-01-08T13:25:29Z</time>
      </trkpt>
      <trkpt lat="43.50158" lon="6.3994">
        <ele>150.2</ele>
        <time>2014-01-08T13:25:35Z</time>
      </trkpt>
      <trkpt lat="43.50159" lon="6.39941">
        <ele>150.2</ele>
        <time>2014-01-08T13:25:36Z</time>
      </trkpt>
      <trkpt lat="43.50168" lon="6.39957">
        <ele>149.2</ele>
        <time>2014-01-08T13:25:46Z</time>
      </trkpt>
      <trkpt lat="43.50173" lon="6.39967">
        <ele>149.4</ele>
        <time>2014-01-08T13:25:55Z</time>
      </trkpt>
      <trkpt lat="43.50171" lon="6.39979">
        <ele>148.5</ele>
        <time>2014-01-08T13:26:21Z</time>
      </trkpt>
      <trkpt lat="43.50179" lon="6.39983">
        <ele>148.8</ele>
        <time>2014-01-08T13:28:42Z</time>
      </trkpt>
      <trkpt lat="43.5018" lon="6.39983">
        <ele>149</ele>
        <time>2014-01-08T13:28:43Z</time>
      </trkpt>
      <trkpt lat="43.50195" lon="6.39991">
        <ele>150</ele>
        <time>2014-01-08T13:28:58Z</time>
      </trkpt>
      <trkpt lat="43.50202" lon="6.39996">
        <ele>149.1</ele>
        <time>2014-01-08T13:29:05Z</time>
      </trkpt>
      <trkpt lat="43.50211" lon="6.39998">
        <ele>149.6</ele>
        <time>2014-01-08T13:29:14Z</time>
      </trkpt>
      <trkpt lat="43.50218" lon="6.40001">
        <ele>150.5</ele>
        <time>2014-01-08T13:29:20Z</time>
      </trkpt>
      <trkpt lat="43.50226" lon="6.40002">
        <ele>150.6</ele>
        <time>2014-01-08T13:29:25Z</time>
      </trkpt>
      <trkpt lat="43.50234" lon="6.40004">
        <ele>149.7</ele>
        <time>2014-01-08T13:29:32Z</time>
      </trkpt>
      <trkpt lat="43.50242" lon="6.40006">
        <ele>148.5</ele>
        <time>2014-01-08T13:29:39Z</time>
      </trkpt>
      <trkpt lat="43.50251" lon="6.40003">
        <ele>149.4</ele>
        <time>2014-01-08T13:29:45Z</time>
      </trkpt>
      <trkpt lat="43.50252" lon="6.40002">
        <ele>149.4</ele>
        <time>2014-01-08T13:29:46Z</time>
      </trkpt>
      <trkpt lat="43.50266" lon="6.40001">
        <ele>146.2</ele>
        <time>2014-01-08T13:29:57Z</time>
      </trkpt>
      <trkpt lat="43.50274" lon="6.40002">
        <ele>146.5</ele>
        <time>2014-01-08T13:30:05Z</time>
      </trkpt>
      <trkpt lat="43.50282" lon="6.40005">
        <ele>146.5</ele>
        <time>2014-01-08T13:30:11Z</time>
      </trkpt>
      <trkpt lat="43.5029" lon="6.4001">
        <ele>146</ele>
        <time>2014-01-08T13:30:19Z</time>
      </trkpt>
      <trkpt lat="43.50297" lon="6.40016">
        <ele>145.7</ele>
        <time>2014-01-08T13:30:26Z</time>
      </trkpt>
      <trkpt lat="43.50304" lon="6.40024">
        <ele>144.3</ele>
        <time>2014-01-08T13:30:34Z</time>
      </trkpt>
      <trkpt lat="43.5031" lon="6.40033">
        <ele>143.9</ele>
        <time>2014-01-08T13:30:43Z</time>
      </trkpt>
      <trkpt lat="43.50305" lon="6.40043">
        <ele>143.2</ele>
        <time>2014-01-08T13:30:54Z</time>
      </trkpt>
      <trkpt lat="43.50304" lon="6.40044">
        <ele>143.4</ele>
        <time>2014-01-08T13:30:55Z</time>
      </trkpt>
      <trkpt lat="43.50296" lon="6.40062">
        <ele>143.6</ele>
        <time>2014-01-08T13:31:10Z</time>
      </trkpt>
      <trkpt lat="43.50293" lon="6.40073">
        <ele>142.8</ele>
        <time>2014-01-08T13:31:18Z</time>
      </trkpt>
      <trkpt lat="43.50289" lon="6.40084">
        <ele>143</ele>
        <time>2014-01-08T13:31:27Z</time>
      </trkpt>
      <trkpt lat="43.50292" lon="6.40072">
        <ele>143</ele>
        <time>2014-01-08T13:36:02Z</time>
      </trkpt>
      <trkpt lat="43.50293" lon="6.40072">
        <ele>142.4</ele>
        <time>2014-01-08T13:36:03Z</time>
      </trkpt>
      <trkpt lat="43.50301" lon="6.40054">
        <ele>143.4</ele>
        <time>2014-01-08T13:36:19Z</time>
      </trkpt>
      <trkpt lat="43.50302" lon="6.40042">
        <ele>144.2</ele>
        <time>2014-01-08T13:36:27Z</time>
      </trkpt>
      <trkpt lat="43.50297" lon="6.40032">
        <ele>145</ele>
        <time>2014-01-08T13:36:36Z</time>
      </trkpt>
      <trkpt lat="43.50298" lon="6.4002">
        <ele>145.3</ele>
        <time>2014-01-08T13:36:54Z</time>
      </trkpt>
      <trkpt lat="43.50293" lon="6.4001">
        <ele>147.1</ele>
        <time>2014-01-08T13:37:05Z</time>
      </trkpt>
      <trkpt lat="43.50294" lon="6.40009">
        <ele>147.3</ele>
        <time>2014-01-08T13:37:06Z</time>
      </trkpt>
      <trkpt lat="43.50301" lon="6.39989">
        <ele>152.6</ele>
        <time>2014-01-08T13:37:31Z</time>
      </trkpt>
      <trkpt lat="43.50305" lon="6.39978">
        <ele>155.7</ele>
        <time>2014-01-08T13:37:45Z</time>
      </trkpt>
      <trkpt lat="43.50307" lon="6.39967">
        <ele>157.7</ele>
        <time>2014-01-08T13:37:58Z</time>
      </trkpt>
      <trkpt lat="43.5031" lon="6.39955">
        <ele>161</ele>
        <time>2014-01-08T13:38:14Z</time>
      </trkpt>
      <trkpt lat="43.5031" lon="6.39954">
        <ele>161.2</ele>
        <time>2014-01-08T13:38:15Z</time>
      </trkpt>
      <trkpt lat="43.50316" lon="6.39933">
        <ele>166.1</ele>
        <time>2014-01-08T13:38:44Z</time>
      </trkpt>
      <trkpt lat="43.50316" lon="6.39921">
        <ele>168.9</ele>
        <time>2014-01-08T13:38:59Z</time>
      </trkpt>
      <trkpt lat="43.50317" lon="6.39909">
        <ele>171.7</ele>
        <time>2014-01-08T13:39:13Z</time>
      </trkpt>
      <trkpt lat="43.50319" lon="6.39897">
        <ele>175.7</ele>
        <time>2014-01-08T13:39:29Z</time>
      </trkpt>
      <trkpt lat="43.50319" lon="6.39897">
        <ele>175.4</ele>
        <time>2014-01-08T13:39:30Z</time>
      </trkpt>
      <trkpt lat="43.50321" lon="6.39873">
        <ele>182.5</ele>
        <time>2014-01-08T13:40:11Z</time>
      </trkpt>
      <trkpt lat="43.50321" lon="6.39861">
        <ele>186.9</ele>
        <time>2014-01-08T13:40:26Z</time>
      </trkpt>
      <trkpt lat="43.50322" lon="6.39849">
        <ele>189.1</ele>
        <time>2014-01-08T13:40:41Z</time>
      </trkpt>
      <trkpt lat="43.50322" lon="6.39849">
        <ele>189.5</ele>
        <time>2014-01-08T13:40:42Z</time>
      </trkpt>
      <trkpt lat="43.50322" lon="6.39826">
        <ele>194.3</ele>
        <time>2014-01-08T13:41:07Z</time>
      </trkpt>
      <trkpt lat="43.50324" lon="6.39814">
        <ele>195.3</ele>
        <time>2014-01-08T13:41:20Z</time>
      </trkpt>
      <trkpt lat="43.50326" lon="6.39802">
        <ele>195.7</ele>
        <time>2014-01-08T13:41:33Z</time>
      </trkpt>
      <trkpt lat="43.50326" lon="6.3979">
        <ele>194.9</ele>
        <time>2014-01-08T13:41:43Z</time>
      </trkpt>
      <trkpt lat="43.50326" lon="6.39789">
        <ele>195.1</ele>
        <time>2014-01-08T13:41:44Z</time>
      </trkpt>
      <trkpt lat="43.50321" lon="6.39779">
        <ele>195.2</ele>
        <time>2014-01-08T13:43:09Z</time>
      </trkpt>
      <trkpt lat="43.50331" lon="6.39762">
        <ele>193.3</ele>
        <time>2014-01-08T13:45:47Z</time>
      </trkpt>
      <trkpt lat="43.50331" lon="6.3976">
        <ele>193.4</ele>
        <time>2014-01-08T13:45:48Z</time>
      </trkpt>
      <trkpt lat="43.50331" lon="6.39738">
        <ele>193.1</ele>
        <time>2014-01-08T13:46:04Z</time>
      </trkpt>
      <trkpt lat="43.50332" lon="6.39727">
        <ele>191.8</ele>
        <time>2014-01-08T13:46:12Z</time>
      </trkpt>
      <trkpt lat="43.50333" lon="6.39715">
        <ele>190.5</ele>
        <time>2014-01-08T13:46:21Z</time>
      </trkpt>
      <trkpt lat="43.50332" lon="6.39704">
        <ele>188.4</ele>
        <time>2014-01-08T13:46:29Z</time>
      </trkpt>
      <trkpt lat="43.50332" lon="6.39692">
        <ele>188.2</ele>
        <time>2014-01-08T13:46:37Z</time>
      </trkpt>
      <trkpt lat="43.5033" lon="6.3968">
        <ele>188.1</ele>
        <time>2014-01-08T13:46:45Z</time>
      </trkpt>
      <trkpt lat="43.50331" lon="6.39669">
        <ele>186.9</ele>
        <time>2014-01-08T13:46:52Z</time>
      </trkpt>
      <trkpt lat="43.50331" lon="6.39667">
        <ele>187.2</ele>
        <time>2014-01-08T13:46:53Z</time>
      </trkpt>
      <trkpt lat="43.50332" lon="6.39646">
        <ele>188.7</ele>
        <time>2014-01-08T13:47:05Z</time>
      </trkpt>
      <trkpt lat="43.50332" lon="6.39635">
        <ele>189.4</ele>
        <time>2014-01-08T13:47:11Z</time>
      </trkpt>
      <trkpt lat="43.5033" lon="6.39623">
        <ele>190.8</ele>
        <time>2014-01-08T13:47:20Z</time>
      </trkpt>
      <trkpt lat="43.50332" lon="6.39611">
        <ele>192.3</ele>
        <time>2014-01-08T13:47:30Z</time>
      </trkpt>
      <trkpt lat="43.50335" lon="6.396">
        <ele>194</ele>
        <time>2014-01-08T13:47:40Z</time>
      </trkpt>
      <trkpt lat="43.50336" lon="6.39588">
        <ele>194.5</ele>
        <time>2014-01-08T13:47:49Z</time>
      </trkpt>
      <trkpt lat="43.50337" lon="6.39577">
        <ele>194</ele>
        <time>2014-01-08T13:47:56Z</time>
      </trkpt>
      <trkpt lat="43.50338" lon="6.39575">
        <ele>194.3</ele>
        <time>2014-01-08T13:47:57Z</time>
      </trkpt>
      <trkpt lat="43.50339" lon="6.39554">
        <ele>196.1</ele>
        <time>2014-01-08T13:48:10Z</time>
      </trkpt>
      <trkpt lat="43.50339" lon="6.39542">
        <ele>195.4</ele>
        <time>2014-01-08T13:48:17Z</time>
      </trkpt>
      <trkpt lat="43.50338" lon="6.3953">
        <ele>196.1</ele>
        <time>2014-01-08T13:48:25Z</time>
      </trkpt>
      <trkpt lat="43.50338" lon="6.39518">
        <ele>196.6</ele>
        <time>2014-01-08T13:48:33Z</time>
      </trkpt>
      <trkpt lat="43.50339" lon="6.39506">
        <ele>197.3</ele>
        <time>2014-01-08T13:48:41Z</time>
      </trkpt>
      <trkpt lat="43.5034" lon="6.39495">
        <ele>197</ele>
        <time>2014-01-08T13:48:50Z</time>
      </trkpt>
      <trkpt lat="43.50341" lon="6.39483">
        <ele>198.5</ele>
        <time>2014-01-08T13:48:59Z</time>
      </trkpt>
      <trkpt lat="43.50341" lon="6.39481">
        <ele>198.6</ele>
        <time>2014-01-08T13:49:00Z</time>
      </trkpt>
      <trkpt lat="43.50342" lon="6.3946">
        <ele>200.6</ele>
        <time>2014-01-08T13:49:14Z</time>
      </trkpt>
      <trkpt lat="43.50343" lon="6.39448">
        <ele>198.8</ele>
        <time>2014-01-08T13:49:21Z</time>
      </trkpt>
      <trkpt lat="43.50344" lon="6.39437">
        <ele>197.5</ele>
        <time>2014-01-08T13:49:27Z</time>
      </trkpt>
      <trkpt lat="43.50344" lon="6.39426">
        <ele>196.9</ele>
        <time>2014-01-08T13:49:34Z</time>
      </trkpt>
      <trkpt lat="43.50344" lon="6.39415">
        <ele>196.9</ele>
        <time>2014-01-08T13:49:41Z</time>
      </trkpt>
      <trkpt lat="43.50345" lon="6.39403">
        <ele>195.6</ele>
        <time>2014-01-08T13:49:48Z</time>
      </trkpt>
      <trkpt lat="43.50345" lon="6.39392">
        <ele>195.3</ele>
        <time>2014-01-08T13:49:55Z</time>
      </trkpt>
      <trkpt lat="43.50344" lon="6.39381">
        <ele>193.4</ele>
        <time>2014-01-08T13:50:02Z</time>
      </trkpt>
      <trkpt lat="43.50344" lon="6.39379">
        <ele>193.6</ele>
        <time>2014-01-08T13:50:03Z</time>
      </trkpt>
      <trkpt lat="43.50342" lon="6.39359">
        <ele>194.5</ele>
        <time>2014-01-08T13:50:15Z</time>
      </trkpt>
      <trkpt lat="43.50344" lon="6.39348">
        <ele>193.2</ele>
        <time>2014-01-08T13:50:23Z</time>
      </trkpt>
      <trkpt lat="43.50345" lon="6.39336">
        <ele>193.1</ele>
        <time>2014-01-08T13:50:30Z</time>
      </trkpt>
      <trkpt lat="43.50346" lon="6.39325">
        <ele>192</ele>
        <time>2014-01-08T13:50:37Z</time>
      </trkpt>
      <trkpt lat="43.50345" lon="6.39313">
        <ele>191.9</ele>
        <time>2014-01-08T13:50:44Z</time>
      </trkpt>
      <trkpt lat="43.50347" lon="6.39302">
        <ele>191.8</ele>
        <time>2014-01-08T13:50:51Z</time>
      </trkpt>
      <trkpt lat="43.50347" lon="6.3929">
        <ele>192</ele>
        <time>2014-01-08T13:50:59Z</time>
      </trkpt>
      <trkpt lat="43.50347" lon="6.39279">
        <ele>192.6</ele>
        <time>2014-01-08T13:51:06Z</time>
      </trkpt>
      <trkpt lat="43.50347" lon="6.39277">
        <ele>191.8</ele>
        <time>2014-01-08T13:51:07Z</time>
      </trkpt>
      <trkpt lat="43.5035" lon="6.39256">
        <ele>195.4</ele>
        <time>2014-01-08T13:51:24Z</time>
      </trkpt>
      <trkpt lat="43.50352" lon="6.39244">
        <ele>195.6</ele>
        <time>2014-01-08T13:51:34Z</time>
      </trkpt>
      <trkpt lat="43.50352" lon="6.39233">
        <ele>196.4</ele>
        <time>2014-01-08T13:51:44Z</time>
      </trkpt>
      <trkpt lat="43.50351" lon="6.39221">
        <ele>197.1</ele>
        <time>2014-01-08T13:51:53Z</time>
      </trkpt>
      <trkpt lat="43.5035" lon="6.39209">
        <ele>197</ele>
        <time>2014-01-08T13:52:02Z</time>
      </trkpt>
      <trkpt lat="43.50349" lon="6.39197">
        <ele>197.3</ele>
        <time>2014-01-08T13:52:10Z</time>
      </trkpt>
      <trkpt lat="43.50348" lon="6.39196">
        <ele>197.2</ele>
        <time>2014-01-08T13:52:11Z</time>
      </trkpt>
      <trkpt lat="43.50346" lon="6.39175">
        <ele>195.6</ele>
        <time>2014-01-08T13:52:24Z</time>
      </trkpt>
      <trkpt lat="43.50347" lon="6.39164">
        <ele>195.7</ele>
        <time>2014-01-08T13:52:31Z</time>
      </trkpt>
      <trkpt lat="43.50348" lon="6.39153">
        <ele>195</ele>
        <time>2014-01-08T13:52:39Z</time>
      </trkpt>
      <trkpt lat="43.50351" lon="6.39142">
        <ele>193.1</ele>
        <time>2014-01-08T13:52:47Z</time>
      </trkpt>
      <trkpt lat="43.50353" lon="6.39131">
        <ele>191.9</ele>
        <time>2014-01-08T13:52:55Z</time>
      </trkpt>
      <trkpt lat="43.50356" lon="6.3912">
        <ele>190.5</ele>
        <time>2014-01-08T13:53:03Z</time>
      </trkpt>
      <trkpt lat="43.50358" lon="6.39109">
        <ele>189.4</ele>
        <time>2014-01-08T13:53:12Z</time>
      </trkpt>
      <trkpt lat="43.50358" lon="6.39107">
        <ele>189</ele>
        <time>2014-01-08T13:53:13Z</time>
      </trkpt>
      <trkpt lat="43.50357" lon="6.39086">
        <ele>188.3</ele>
        <time>2014-01-08T13:53:26Z</time>
      </trkpt>
      <trkpt lat="43.50355" lon="6.39075">
        <ele>188</ele>
        <time>2014-01-08T13:53:33Z</time>
      </trkpt>
      <trkpt lat="43.50353" lon="6.39063">
        <ele>188.5</ele>
        <time>2014-01-08T13:53:42Z</time>
      </trkpt>
      <trkpt lat="43.50353" lon="6.39051">
        <ele>186.6</ele>
        <time>2014-01-08T13:53:50Z</time>
      </trkpt>
      <trkpt lat="43.50349" lon="6.3904">
        <ele>186.6</ele>
        <time>2014-01-08T13:53:58Z</time>
      </trkpt>
      <trkpt lat="43.50345" lon="6.39031">
        <ele>186.7</ele>
        <time>2014-01-08T13:54:06Z</time>
      </trkpt>
      <trkpt lat="43.5034" lon="6.39022">
        <ele>186.6</ele>
        <time>2014-01-08T13:54:13Z</time>
      </trkpt>
      <trkpt lat="43.50339" lon="6.39021">
        <ele>186.8</ele>
        <time>2014-01-08T13:54:14Z</time>
      </trkpt>
      <trkpt lat="43.50331" lon="6.39003">
        <ele>186.9</ele>
        <time>2014-01-08T13:54:27Z</time>
      </trkpt>
      <trkpt lat="43.50329" lon="6.38992">
        <ele>186.7</ele>
        <time>2014-01-08T13:54:33Z</time>
      </trkpt>
      <trkpt lat="43.50325" lon="6.38981">
        <ele>186.5</ele>
        <time>2014-01-08T13:54:39Z</time>
      </trkpt>
      <trkpt lat="43.50321" lon="6.38971">
        <ele>185.8</ele>
        <time>2014-01-08T13:54:45Z</time>
      </trkpt>
      <trkpt lat="43.50316" lon="6.38962">
        <ele>185.1</ele>
        <time>2014-01-08T13:54:52Z</time>
      </trkpt>
      <trkpt lat="43.50308" lon="6.38959">
        <ele>184.6</ele>
        <time>2014-01-08T13:54:59Z</time>
      </trkpt>
      <trkpt lat="43.503" lon="6.38959">
        <ele>184.7</ele>
        <time>2014-01-08T13:55:06Z</time>
      </trkpt>
      <trkpt lat="43.50291" lon="6.38962">
        <ele>183.9</ele>
        <time>2014-01-08T13:55:13Z</time>
      </trkpt>
      <trkpt lat="43.50283" lon="6.38965">
        <ele>183.7</ele>
        <time>2014-01-08T13:55:19Z</time>
      </trkpt>
      <trkpt lat="43.50282" lon="6.38965">
        <ele>184.1</ele>
        <time>2014-01-08T13:55:20Z</time>
      </trkpt>
      <trkpt lat="43.50268" lon="6.3897">
        <ele>182.2</ele>
        <time>2014-01-08T13:55:32Z</time>
      </trkpt>
      <trkpt lat="43.5026" lon="6.38975">
        <ele>181.8</ele>
        <time>2014-01-08T13:55:39Z</time>
      </trkpt>
      <trkpt lat="43.50255" lon="6.38985">
        <ele>181.9</ele>
        <time>2014-01-08T13:55:47Z</time>
      </trkpt>
      <trkpt lat="43.50254" lon="6.38996">
        <ele>182.5</ele>
        <time>2014-01-08T13:55:56Z</time>
      </trkpt>
      <trkpt lat="43.50251" lon="6.39007">
        <ele>183.9</ele>
        <time>2014-01-08T13:56:06Z</time>
      </trkpt>
      <trkpt lat="43.50247" lon="6.39017">
        <ele>184.4</ele>
        <time>2014-01-08T13:56:16Z</time>
      </trkpt>
      <trkpt lat="43.50242" lon="6.39026">
        <ele>184.8</ele>
        <time>2014-01-08T13:56:23Z</time>
      </trkpt>
      <trkpt lat="43.50241" lon="6.39027">
        <ele>184.9</ele>
        <time>2014-01-08T13:56:24Z</time>
      </trkpt>
      <trkpt lat="43.50227" lon="6.3904">
        <ele>184</ele>
        <time>2014-01-08T13:56:39Z</time>
      </trkpt>
      <trkpt lat="43.50221" lon="6.39047">
        <ele>185.2</ele>
        <time>2014-01-08T13:56:46Z</time>
      </trkpt>
      <trkpt lat="43.50214" lon="6.39055">
        <ele>185.1</ele>
        <time>2014-01-08T13:56:54Z</time>
      </trkpt>
      <trkpt lat="43.50206" lon="6.39061">
        <ele>184.6</ele>
        <time>2014-01-08T13:57:01Z</time>
      </trkpt>
      <trkpt lat="43.50199" lon="6.39066">
        <ele>185.3</ele>
        <time>2014-01-08T13:57:08Z</time>
      </trkpt>
      <trkpt lat="43.50191" lon="6.39069">
        <ele>184.7</ele>
        <time>2014-01-08T13:57:16Z</time>
      </trkpt>
      <trkpt lat="43.50183" lon="6.39064">
        <ele>184.2</ele>
        <time>2014-01-08T13:57:28Z</time>
      </trkpt>
      <trkpt lat="43.50183" lon="6.39063">
        <ele>184.2</ele>
        <time>2014-01-08T13:57:29Z</time>
      </trkpt>
      <trkpt lat="43.50187" lon="6.39041">
        <ele>182.8</ele>
        <time>2014-01-08T13:57:49Z</time>
      </trkpt>
      <trkpt lat="43.50188" lon="6.39029">
        <ele>181.9</ele>
        <time>2014-01-08T13:57:57Z</time>
      </trkpt>
      <trkpt lat="43.50189" lon="6.39017">
        <ele>181.5</ele>
        <time>2014-01-08T13:58:04Z</time>
      </trkpt>
      <trkpt lat="43.5019" lon="6.39006">
        <ele>182.3</ele>
        <time>2014-01-08T13:58:10Z</time>
      </trkpt>
      <trkpt lat="43.50192" lon="6.38995">
        <ele>181.9</ele>
        <time>2014-01-08T13:58:17Z</time>
      </trkpt>
      <trkpt lat="43.50193" lon="6.38984">
        <ele>180.9</ele>
        <time>2014-01-08T13:58:24Z</time>
      </trkpt>
      <trkpt lat="43.50194" lon="6.38973">
        <ele>181.8</ele>
        <time>2014-01-08T13:58:31Z</time>
      </trkpt>
      <trkpt lat="43.50195" lon="6.38971">
        <ele>181.6</ele>
        <time>2014-01-08T13:58:32Z</time>
      </trkpt>
      <trkpt lat="43.50198" lon="6.38951">
        <ele>180.6</ele>
        <time>2014-01-08T13:58:45Z</time>
      </trkpt>
      <trkpt lat="43.502" lon="6.3894">
        <ele>181.1</ele>
        <time>2014-01-08T13:58:51Z</time>
      </trkpt>
      <trkpt lat="43.50202" lon="6.38929">
        <ele>181</ele>
        <time>2014-01-08T13:58:58Z</time>
      </trkpt>
      <trkpt lat="43.50205" lon="6.38917">
        <ele>181.4</ele>
        <time>2014-01-08T13:59:05Z</time>
      </trkpt>
      <trkpt lat="43.50208" lon="6.38907">
        <ele>181.9</ele>
        <time>2014-01-08T13:59:11Z</time>
      </trkpt>
      <trkpt lat="43.50211" lon="6.38895">
        <ele>181.7</ele>
        <time>2014-01-08T13:59:18Z</time>
      </trkpt>
      <trkpt lat="43.50213" lon="6.38884">
        <ele>181.5</ele>
        <time>2014-01-08T13:59:24Z</time>
      </trkpt>
      <trkpt lat="43.50214" lon="6.38872">
        <ele>182.4</ele>
        <time>2014-01-08T13:59:30Z</time>
      </trkpt>
      <trkpt lat="43.50216" lon="6.3886">
        <ele>182.5</ele>
        <time>2014-01-08T13:59:37Z</time>
      </trkpt>
      <trkpt lat="43.50216" lon="6.38859">
        <ele>182.6</ele>
        <time>2014-01-08T13:59:38Z</time>
      </trkpt>
      <trkpt lat="43.50221" lon="6.3884">
        <ele>184.5</ele>
        <time>2014-01-08T13:59:53Z</time>
      </trkpt>
      <trkpt lat="43.5023" lon="6.38837">
        <ele>184.9</ele>
        <time>2014-01-08T14:00:00Z</time>
      </trkpt>
      <trkpt lat="43.50237" lon="6.38837">
        <ele>184.8</ele>
        <time>2014-01-08T14:00:06Z</time>
      </trkpt>
      <trkpt lat="43.50246" lon="6.38836">
        <ele>185.1</ele>
        <time>2014-01-08T14:00:18Z</time>
      </trkpt>
      <trkpt lat="43.50254" lon="6.38836">
        <ele>185.3</ele>
        <time>2014-01-08T14:00:27Z</time>
      </trkpt>
      <trkpt lat="43.50262" lon="6.38836">
        <ele>186.1</ele>
        <time>2014-01-08T14:00:36Z</time>
      </trkpt>
      <trkpt lat="43.50271" lon="6.38837">
        <ele>186.1</ele>
        <time>2014-01-08T14:00:44Z</time>
      </trkpt>
      <trkpt lat="43.50272" lon="6.38837">
        <ele>186.5</ele>
        <time>2014-01-08T14:00:45Z</time>
      </trkpt>
      <trkpt lat="43.50288" lon="6.38838">
        <ele>186.3</ele>
        <time>2014-01-08T14:02:33Z</time>
      </trkpt>
      <trkpt lat="43.50289" lon="6.38838">
        <ele>186.1</ele>
        <time>2014-01-08T14:02:34Z</time>
      </trkpt>
      <trkpt lat="43.50305" lon="6.38844">
        <ele>187.5</ele>
        <time>2014-01-08T14:02:49Z</time>
      </trkpt>
      <trkpt lat="43.50312" lon="6.38847">
        <ele>187</ele>
        <time>2014-01-08T14:02:56Z</time>
      </trkpt>
      <trkpt lat="43.50321" lon="6.38849">
        <ele>187.9</ele>
        <time>2014-01-08T14:03:04Z</time>
      </trkpt>
      <trkpt lat="43.5033" lon="6.3885">
        <ele>188</ele>
        <time>2014-01-08T14:03:11Z</time>
      </trkpt>
      <trkpt lat="43.50338" lon="6.38851">
        <ele>188.4</ele>
        <time>2014-01-08T14:03:18Z</time>
      </trkpt>
      <trkpt lat="43.50347" lon="6.38852">
        <ele>188.9</ele>
        <time>2014-01-08T14:03:25Z</time>
      </trkpt>
      <trkpt lat="43.50355" lon="6.38852">
        <ele>189.1</ele>
        <time>2014-01-08T14:03:31Z</time>
      </trkpt>
      <trkpt lat="43.50363" lon="6.38851">
        <ele>189.6</ele>
        <time>2014-01-08T14:03:37Z</time>
      </trkpt>
      <trkpt lat="43.50364" lon="6.38851">
        <ele>189.5</ele>
        <time>2014-01-08T14:03:38Z</time>
      </trkpt>
      <trkpt lat="43.50378" lon="6.38849">
        <ele>189.3</ele>
        <time>2014-01-08T14:03:49Z</time>
      </trkpt>
      <trkpt lat="43.50386" lon="6.38846">
        <ele>188.7</ele>
        <time>2014-01-08T14:03:55Z</time>
      </trkpt>
      <trkpt lat="43.50393" lon="6.38844">
        <ele>188.2</ele>
        <time>2014-01-08T14:04:01Z</time>
      </trkpt>
      <trkpt lat="43.50402" lon="6.38841">
        <ele>187.8</ele>
        <time>2014-01-08T14:04:08Z</time>
      </trkpt>
      <trkpt lat="43.5041" lon="6.38837">
        <ele>188.8</ele>
        <time>2014-01-08T14:04:15Z</time>
      </trkpt>
      <trkpt lat="43.50418" lon="6.38833">
        <ele>189</ele>
        <time>2014-01-08T14:04:22Z</time>
      </trkpt>
      <trkpt lat="43.50426" lon="6.38831">
        <ele>188.7</ele>
        <time>2014-01-08T14:04:28Z</time>
      </trkpt>
      <trkpt lat="43.50434" lon="6.38831">
        <ele>187.5</ele>
        <time>2014-01-08T14:04:34Z</time>
      </trkpt>
      <trkpt lat="43.50443" lon="6.38835">
        <ele>187.5</ele>
        <time>2014-01-08T14:04:41Z</time>
      </trkpt>
      <trkpt lat="43.50444" lon="6.38836">
        <ele>187.7</ele>
        <time>2014-01-08T14:04:42Z</time>
      </trkpt>
      <trkpt lat="43.50458" lon="6.38846">
        <ele>187.2</ele>
        <time>2014-01-08T14:04:55Z</time>
      </trkpt>
      <trkpt lat="43.50464" lon="6.38853">
        <ele>186.6</ele>
        <time>2014-01-08T14:05:01Z</time>
      </trkpt>
      <trkpt lat="43.50471" lon="6.38861">
        <ele>186.8</ele>
        <time>2014-01-08T14:05:07Z</time>
      </trkpt>
      <trkpt lat="43.50477" lon="6.38868">
        <ele>186.1</ele>
        <time>2014-01-08T14:05:12Z</time>
      </trkpt>
      <trkpt lat="43.50485" lon="6.38875">
        <ele>186</ele>
        <time>2014-01-08T14:05:19Z</time>
      </trkpt>
      <trkpt lat="43.50492" lon="6.38879">
        <ele>185.4</ele>
        <time>2014-01-08T14:05:27Z</time>
      </trkpt>
      <trkpt lat="43.50498" lon="6.38884">
        <ele>184.7</ele>
        <time>2014-01-08T14:05:33Z</time>
      </trkpt>
      <trkpt lat="43.50506" lon="6.38891">
        <ele>184.7</ele>
        <time>2014-01-08T14:05:41Z</time>
      </trkpt>
      <trkpt lat="43.50513" lon="6.38898">
        <ele>184.6</ele>
        <time>2014-01-08T14:05:48Z</time>
      </trkpt>
      <trkpt lat="43.50514" lon="6.38899">
        <ele>184.5</ele>
        <time>2014-01-08T14:05:49Z</time>
      </trkpt>
      <trkpt lat="43.50528" lon="6.38907">
        <ele>183.6</ele>
        <time>2014-01-08T14:06:03Z</time>
      </trkpt>
      <trkpt lat="43.50536" lon="6.38911">
        <ele>182.8</ele>
        <time>2014-01-08T14:06:10Z</time>
      </trkpt>
      <trkpt lat="43.50544" lon="6.38913">
        <ele>183.4</ele>
        <time>2014-01-08T14:06:17Z</time>
      </trkpt>
      <trkpt lat="43.50553" lon="6.38911">
        <ele>182.3</ele>
        <time>2014-01-08T14:06:24Z</time>
      </trkpt>
      <trkpt lat="43.50562" lon="6.38912">
        <ele>182.6</ele>
        <time>2014-01-08T14:06:32Z</time>
      </trkpt>
      <trkpt lat="43.50569" lon="6.38913">
        <ele>181.8</ele>
        <time>2014-01-08T14:06:39Z</time>
      </trkpt>
      <trkpt lat="43.50577" lon="6.38914">
        <ele>181.6</ele>
        <time>2014-01-08T14:06:46Z</time>
      </trkpt>
      <trkpt lat="43.50585" lon="6.38913">
        <ele>180.8</ele>
        <time>2014-01-08T14:06:53Z</time>
      </trkpt>
      <trkpt lat="43.50587" lon="6.38912">
        <ele>180.8</ele>
        <time>2014-01-08T14:06:54Z</time>
      </trkpt>
      <trkpt lat="43.50602" lon="6.38912">
        <ele>179.1</ele>
        <time>2014-01-08T14:07:08Z</time>
      </trkpt>
      <trkpt lat="43.5061" lon="6.3891">
        <ele>177.2</ele>
        <time>2014-01-08T14:07:17Z</time>
      </trkpt>
      <trkpt lat="43.50618" lon="6.38912">
        <ele>176.5</ele>
        <time>2014-01-08T14:07:27Z</time>
      </trkpt>
      <trkpt lat="43.50625" lon="6.38921">
        <ele>175.6</ele>
        <time>2014-01-08T14:07:35Z</time>
      </trkpt>
      <trkpt lat="43.5063" lon="6.38931">
        <ele>175.4</ele>
        <time>2014-01-08T14:07:43Z</time>
      </trkpt>
      <trkpt lat="43.50633" lon="6.38941">
        <ele>174.6</ele>
        <time>2014-01-08T14:07:50Z</time>
      </trkpt>
      <trkpt lat="43.50636" lon="6.38951">
        <ele>174.6</ele>
        <time>2014-01-08T14:07:57Z</time>
      </trkpt>
      <trkpt lat="43.50636" lon="6.38953">
        <ele>174.5</ele>
        <time>2014-01-08T14:07:58Z</time>
      </trkpt>
      <trkpt lat="43.50645" lon="6.3897">
        <ele>174.4</ele>
        <time>2014-01-08T14:08:14Z</time>
      </trkpt>
      <trkpt lat="43.50648" lon="6.38981">
        <ele>172.9</ele>
        <time>2014-01-08T14:08:25Z</time>
      </trkpt>
      <trkpt lat="43.50653" lon="6.38991">
        <ele>171.7</ele>
        <time>2014-01-08T14:08:36Z</time>
      </trkpt>
      <trkpt lat="43.50661" lon="6.38992">
        <ele>168.9</ele>
        <time>2014-01-08T14:08:45Z</time>
      </trkpt>
      <trkpt lat="43.5067" lon="6.38991">
        <ele>167.8</ele>
        <time>2014-01-08T14:08:54Z</time>
      </trkpt>
      <trkpt lat="43.50678" lon="6.38989">
        <ele>167.2</ele>
        <time>2014-01-08T14:09:01Z</time>
      </trkpt>
      <trkpt lat="43.50679" lon="6.38989">
        <ele>167.1</ele>
        <time>2014-01-08T14:09:02Z</time>
      </trkpt>
      <trkpt lat="43.50695" lon="6.38993">
        <ele>165.7</ele>
        <time>2014-01-08T14:09:15Z</time>
      </trkpt>
      <trkpt lat="43.50704" lon="6.38992">
        <ele>164.8</ele>
        <time>2014-01-08T14:09:22Z</time>
      </trkpt>
      <trkpt lat="43.5071" lon="6.38986">
        <ele>163</ele>
        <time>2014-01-08T14:09:30Z</time>
      </trkpt>
      <trkpt lat="43.50717" lon="6.38978">
        <ele>163.5</ele>
        <time>2014-01-08T14:09:43Z</time>
      </trkpt>
      <trkpt lat="43.50722" lon="6.38968">
        <ele>163.1</ele>
        <time>2014-01-08T14:09:54Z</time>
      </trkpt>
      <trkpt lat="43.50723" lon="6.38956">
        <ele>163.8</ele>
        <time>2014-01-08T14:10:03Z</time>
      </trkpt>
      <trkpt lat="43.50723" lon="6.38955">
        <ele>163.8</ele>
        <time>2014-01-08T14:10:04Z</time>
      </trkpt>
      <trkpt lat="43.50728" lon="6.38934">
        <ele>163.4</ele>
        <time>2014-01-08T14:10:24Z</time>
      </trkpt>
      <trkpt lat="43.50729" lon="6.38924">
        <ele>164</ele>
        <time>2014-01-08T14:10:30Z</time>
      </trkpt>
      <trkpt lat="43.50731" lon="6.38911">
        <ele>164.1</ele>
        <time>2014-01-08T14:10:36Z</time>
      </trkpt>
      <trkpt lat="43.50732" lon="6.389">
        <ele>164.2</ele>
        <time>2014-01-08T14:10:42Z</time>
      </trkpt>
      <trkpt lat="43.50732" lon="6.3889">
        <ele>164.1</ele>
        <time>2014-01-08T14:10:50Z</time>
      </trkpt>
      <trkpt lat="43.50735" lon="6.3888">
        <ele>165.2</ele>
        <time>2014-01-08T14:10:56Z</time>
      </trkpt>
      <trkpt lat="43.50742" lon="6.38872">
        <ele>165.6</ele>
        <time>2014-01-08T14:11:02Z</time>
      </trkpt>
      <trkpt lat="43.50751" lon="6.3887">
        <ele>166.5</ele>
        <time>2014-01-08T14:11:10Z</time>
      </trkpt>
      <trkpt lat="43.50752" lon="6.3887">
        <ele>166.2</ele>
        <time>2014-01-08T14:11:11Z</time>
      </trkpt>
      <trkpt lat="43.50761" lon="6.38887">
        <ele>167.9</ele>
        <time>2014-01-08T14:11:29Z</time>
      </trkpt>
      <trkpt lat="43.50763" lon="6.38898">
        <ele>169.4</ele>
        <time>2014-01-08T14:11:39Z</time>
      </trkpt>
      <trkpt lat="43.50762" lon="6.38911">
        <ele>171.1</ele>
        <time>2014-01-08T14:11:50Z</time>
      </trkpt>
      <trkpt lat="43.50765" lon="6.38922">
        <ele>173.1</ele>
        <time>2014-01-08T14:11:59Z</time>
      </trkpt>
      <trkpt lat="43.50767" lon="6.38933">
        <ele>174</ele>
        <time>2014-01-08T14:12:08Z</time>
      </trkpt>
      <trkpt lat="43.5077" lon="6.38945">
        <ele>175.1</ele>
        <time>2014-01-08T14:12:15Z</time>
      </trkpt>
      <trkpt lat="43.50771" lon="6.38946">
        <ele>175.6</ele>
        <time>2014-01-08T14:12:16Z</time>
      </trkpt>
      <trkpt lat="43.5078" lon="6.38964">
        <ele>177.3</ele>
        <time>2014-01-08T14:12:32Z</time>
      </trkpt>
      <trkpt lat="43.50785" lon="6.38974">
        <ele>176.6</ele>
        <time>2014-01-08T14:12:40Z</time>
      </trkpt>
      <trkpt lat="43.50791" lon="6.38983">
        <ele>176.9</ele>
        <time>2014-01-08T14:12:48Z</time>
      </trkpt>
      <trkpt lat="43.50797" lon="6.38991">
        <ele>176.6</ele>
        <time>2014-01-08T14:12:56Z</time>
      </trkpt>
      <trkpt lat="43.50805" lon="6.38996">
        <ele>176.4</ele>
        <time>2014-01-08T14:13:04Z</time>
      </trkpt>
      <trkpt lat="43.50813" lon="6.39">
        <ele>176.1</ele>
        <time>2014-01-08T14:13:12Z</time>
      </trkpt>
      <trkpt lat="43.5082" lon="6.39005">
        <ele>175.9</ele>
        <time>2014-01-08T14:13:20Z</time>
      </trkpt>
      <trkpt lat="43.50821" lon="6.39005">
        <ele>175.5</ele>
        <time>2014-01-08T14:13:21Z</time>
      </trkpt>
      <trkpt lat="43.50832" lon="6.39019">
        <ele>176.3</ele>
        <time>2014-01-08T14:13:33Z</time>
      </trkpt>
      <trkpt lat="43.5084" lon="6.39024">
        <ele>176.2</ele>
        <time>2014-01-08T14:13:40Z</time>
      </trkpt>
      <trkpt lat="43.50848" lon="6.39029">
        <ele>176.6</ele>
        <time>2014-01-08T14:13:49Z</time>
      </trkpt>
      <trkpt lat="43.50856" lon="6.3903">
        <ele>177.3</ele>
        <time>2014-01-08T14:13:57Z</time>
      </trkpt>
      <trkpt lat="43.50864" lon="6.39024">
        <ele>178.5</ele>
        <time>2014-01-08T14:14:06Z</time>
      </trkpt>
      <trkpt lat="43.50869" lon="6.39014">
        <ele>179.9</ele>
        <time>2014-01-08T14:14:15Z</time>
      </trkpt>
      <trkpt lat="43.50871" lon="6.39003">
        <ele>180.4</ele>
        <time>2014-01-08T14:14:22Z</time>
      </trkpt>
      <trkpt lat="43.50871" lon="6.39002">
        <ele>180.3</ele>
        <time>2014-01-08T14:14:23Z</time>
      </trkpt>
      <trkpt lat="43.50872" lon="6.38981">
        <ele>181.3</ele>
        <time>2014-01-08T14:14:37Z</time>
      </trkpt>
      <trkpt lat="43.50872" lon="6.38969">
        <ele>182.7</ele>
        <time>2014-01-08T14:14:46Z</time>
      </trkpt>
      <trkpt lat="43.50873" lon="6.38958">
        <ele>182.8</ele>
        <time>2014-01-08T14:14:54Z</time>
      </trkpt>
      <trkpt lat="43.50875" lon="6.38948">
        <ele>183.6</ele>
        <time>2014-01-08T14:15:01Z</time>
      </trkpt>
      <trkpt lat="43.50879" lon="6.38938">
        <ele>184.1</ele>
        <time>2014-01-08T14:15:06Z</time>
      </trkpt>
      <trkpt lat="43.50882" lon="6.38928">
        <ele>184</ele>
        <time>2014-01-08T14:15:12Z</time>
      </trkpt>
      <trkpt lat="43.50886" lon="6.38917">
        <ele>183.8</ele>
        <time>2014-01-08T14:15:18Z</time>
      </trkpt>
      <trkpt lat="43.5089" lon="6.38906">
        <ele>183.2</ele>
        <time>2014-01-08T14:15:25Z</time>
      </trkpt>
      <trkpt lat="43.50891" lon="6.38905">
        <ele>183.3</ele>
        <time>2014-01-08T14:15:26Z</time>
      </trkpt>
      <trkpt lat="43.50905" lon="6.38894">
        <ele>184.6</ele>
        <time>2014-01-08T14:15:40Z</time>
      </trkpt>
      <trkpt lat="43.50913" lon="6.38894">
        <ele>185.7</ele>
        <time>2014-01-08T14:15:46Z</time>
      </trkpt>
      <trkpt lat="43.50921" lon="6.38892">
        <ele>185.7</ele>
        <time>2014-01-08T14:15:52Z</time>
      </trkpt>
      <trkpt lat="43.50929" lon="6.38887">
        <ele>185.2</ele>
        <time>2014-01-08T14:15:59Z</time>
      </trkpt>
      <trkpt lat="43.50937" lon="6.38883">
        <ele>185.5</ele>
        <time>2014-01-08T14:16:06Z</time>
      </trkpt>
      <trkpt lat="43.50946" lon="6.38881">
        <ele>186.4</ele>
        <time>2014-01-08T14:16:13Z</time>
      </trkpt>
      <trkpt lat="43.50954" lon="6.38881">
        <ele>185.8</ele>
        <time>2014-01-08T14:16:19Z</time>
      </trkpt>
      <trkpt lat="43.50962" lon="6.38878">
        <ele>185.1</ele>
        <time>2014-01-08T14:16:25Z</time>
      </trkpt>
      <trkpt lat="43.5097" lon="6.38874">
        <ele>185.3</ele>
        <time>2014-01-08T14:16:32Z</time>
      </trkpt>
      <trkpt lat="43.50971" lon="6.38874">
        <ele>185.8</ele>
        <time>2014-01-08T14:16:33Z</time>
      </trkpt>
      <trkpt lat="43.50983" lon="6.3886">
        <ele>187.2</ele>
        <time>2014-01-08T14:16:46Z</time>
      </trkpt>
      <trkpt lat="43.50989" lon="6.38852">
        <ele>186.8</ele>
        <time>2014-01-08T14:16:54Z</time>
      </trkpt>
      <trkpt lat="43.50995" lon="6.38845">
        <ele>187.7</ele>
        <time>2014-01-08T14:17:00Z</time>
      </trkpt>
      <trkpt lat="43.51003" lon="6.38839">
        <ele>187.6</ele>
        <time>2014-01-08T14:17:07Z</time>
      </trkpt>
      <trkpt lat="43.5101" lon="6.38833">
        <ele>188.6</ele>
        <time>2014-01-08T14:17:14Z</time>
      </trkpt>
      <trkpt lat="43.51018" lon="6.38828">
        <ele>189.1</ele>
        <time>2014-01-08T14:17:21Z</time>
      </trkpt>
      <trkpt lat="43.51026" lon="6.38829">
        <ele>189</ele>
        <time>2014-01-08T14:17:50Z</time>
      </trkpt>
      <trkpt lat="43.51027" lon="6.38829">
        <ele>189.1</ele>
        <time>2014-01-08T14:17:51Z</time>
      </trkpt>
      <trkpt lat="43.51043" lon="6.38827">
        <ele>189.1</ele>
        <time>2014-01-08T14:18:06Z</time>
      </trkpt>
      <trkpt lat="43.51052" lon="6.38826">
        <ele>190.4</ele>
        <time>2014-01-08T14:18:17Z</time>
      </trkpt>
      <trkpt lat="43.51059" lon="6.38821">
        <ele>190.4</ele>
        <time>2014-01-08T14:18:27Z</time>
      </trkpt>
      <trkpt lat="43.51065" lon="6.38812">
        <ele>191.7</ele>
        <time>2014-01-08T14:18:45Z</time>
      </trkpt>
      <trkpt lat="43.51071" lon="6.38803">
        <ele>190.8</ele>
        <time>2014-01-08T14:18:56Z</time>
      </trkpt>
      <trkpt lat="43.51071" lon="6.38802">
        <ele>190.9</ele>
        <time>2014-01-08T14:18:57Z</time>
      </trkpt>
      <trkpt lat="43.51074" lon="6.38791">
        <ele>192.8</ele>
        <time>2014-01-08T14:20:15Z</time>
      </trkpt>
      <trkpt lat="43.51075" lon="6.38789">
        <ele>191.5</ele>
        <time>2014-01-08T14:21:47Z</time>
      </trkpt>
      <trkpt lat="43.51075" lon="6.38789">
        <ele>191.4</ele>
        <time>2014-01-08T14:21:48Z</time>
      </trkpt>
      <trkpt lat="43.51085" lon="6.3877">
        <ele>194.6</ele>
        <time>2014-01-08T14:22:52Z</time>
      </trkpt>
      <trkpt lat="43.51085" lon="6.38769">
        <ele>194.5</ele>
        <time>2014-01-08T14:22:53Z</time>
      </trkpt>
      <trkpt lat="43.51094" lon="6.38751">
        <ele>196.7</ele>
        <time>2014-01-08T14:23:12Z</time>
      </trkpt>
      <trkpt lat="43.511" lon="6.38742">
        <ele>197</ele>
        <time>2014-01-08T14:23:19Z</time>
      </trkpt>
      <trkpt lat="43.51103" lon="6.38732">
        <ele>197.5</ele>
        <time>2014-01-08T14:23:25Z</time>
      </trkpt>
      <trkpt lat="43.51104" lon="6.38721">
        <ele>197.6</ele>
        <time>2014-01-08T14:23:34Z</time>
      </trkpt>
      <trkpt lat="43.51105" lon="6.38709">
        <ele>196.9</ele>
        <time>2014-01-08T14:23:40Z</time>
      </trkpt>
      <trkpt lat="43.51105" lon="6.38698">
        <ele>197.3</ele>
        <time>2014-01-08T14:23:46Z</time>
      </trkpt>
      <trkpt lat="43.51102" lon="6.38687">
        <ele>197.2</ele>
        <time>2014-01-08T14:23:54Z</time>
      </trkpt>
      <trkpt lat="43.51102" lon="6.38686">
        <ele>197.2</ele>
        <time>2014-01-08T14:23:55Z</time>
      </trkpt>
      <trkpt lat="43.51095" lon="6.38667">
        <ele>195.9</ele>
        <time>2014-01-08T14:24:09Z</time>
      </trkpt>
      <trkpt lat="43.51092" lon="6.38657">
        <ele>196.3</ele>
        <time>2014-01-08T14:24:16Z</time>
      </trkpt>
      <trkpt lat="43.51087" lon="6.38646">
        <ele>196.2</ele>
        <time>2014-01-08T14:24:24Z</time>
      </trkpt>
      <trkpt lat="43.51084" lon="6.38636">
        <ele>196</ele>
        <time>2014-01-08T14:24:31Z</time>
      </trkpt>
      <trkpt lat="43.51083" lon="6.38626">
        <ele>196.1</ele>
        <time>2014-01-08T14:24:37Z</time>
      </trkpt>
      <trkpt lat="43.51086" lon="6.38615">
        <ele>195.5</ele>
        <time>2014-01-08T14:24:44Z</time>
      </trkpt>
      <trkpt lat="43.51091" lon="6.38605">
        <ele>196.3</ele>
        <time>2014-01-08T14:24:50Z</time>
      </trkpt>
      <trkpt lat="43.51095" lon="6.38595">
        <ele>196.3</ele>
        <time>2014-01-08T14:24:59Z</time>
      </trkpt>
      <trkpt lat="43.51095" lon="6.38594">
        <ele>196.2</ele>
        <time>2014-01-08T14:25:00Z</time>
      </trkpt>
      <trkpt lat="43.51108" lon="6.38583">
        <ele>197.2</ele>
        <time>2014-01-08T14:25:18Z</time>
      </trkpt>
      <trkpt lat="43.51116" lon="6.38583">
        <ele>198.1</ele>
        <time>2014-01-08T14:25:27Z</time>
      </trkpt>
      <trkpt lat="43.51123" lon="6.38589">
        <ele>198.8</ele>
        <time>2014-01-08T14:25:35Z</time>
      </trkpt>
      <trkpt lat="43.51131" lon="6.38593">
        <ele>199</ele>
        <time>2014-01-08T14:25:42Z</time>
      </trkpt>
      <trkpt lat="43.51139" lon="6.38593">
        <ele>199.6</ele>
        <time>2014-01-08T14:25:51Z</time>
      </trkpt>
      <trkpt lat="43.51147" lon="6.38597">
        <ele>200.5</ele>
        <time>2014-01-08T14:25:59Z</time>
      </trkpt>
      <trkpt lat="43.51154" lon="6.386">
        <ele>200.9</ele>
        <time>2014-01-08T14:26:05Z</time>
      </trkpt>
      <trkpt lat="43.51156" lon="6.38601">
        <ele>201.1</ele>
        <time>2014-01-08T14:26:06Z</time>
      </trkpt>
      <trkpt lat="43.51171" lon="6.38607">
        <ele>201</ele>
        <time>2014-01-08T14:26:18Z</time>
      </trkpt>
      <trkpt lat="43.51179" lon="6.38609">
        <ele>202.2</ele>
        <time>2014-01-08T14:26:27Z</time>
      </trkpt>
      <trkpt lat="43.51187" lon="6.38611">
        <ele>201.9</ele>
        <time>2014-01-08T14:26:35Z</time>
      </trkpt>
      <trkpt lat="43.51195" lon="6.38613">
        <ele>202.2</ele>
        <time>2014-01-08T14:26:41Z</time>
      </trkpt>
      <trkpt lat="43.51203" lon="6.38615">
        <ele>201.7</ele>
        <time>2014-01-08T14:26:47Z</time>
      </trkpt>
      <trkpt lat="43.51211" lon="6.38621">
        <ele>201.1</ele>
        <time>2014-01-08T14:26:55Z</time>
      </trkpt>
      <trkpt lat="43.51212" lon="6.38609">
        <ele>200.4</ele>
        <time>2014-01-08T14:27:21Z</time>
      </trkpt>
      <trkpt lat="43.51213" lon="6.38608">
        <ele>200.6</ele>
        <time>2014-01-08T14:27:22Z</time>
      </trkpt>
      <trkpt lat="43.51218" lon="6.38588">
        <ele>199.6</ele>
        <time>2014-01-08T14:27:38Z</time>
      </trkpt>
      <trkpt lat="43.5122" lon="6.38576">
        <ele>199.7</ele>
        <time>2014-01-08T14:27:47Z</time>
      </trkpt>
      <trkpt lat="43.51223" lon="6.38565">
        <ele>199.4</ele>
        <time>2014-01-08T14:27:55Z</time>
      </trkpt>
      <trkpt lat="43.51228" lon="6.38555">
        <ele>199.3</ele>
        <time>2014-01-08T14:28:03Z</time>
      </trkpt>
      <trkpt lat="43.51233" lon="6.38545">
        <ele>198.7</ele>
        <time>2014-01-08T14:28:11Z</time>
      </trkpt>
      <trkpt lat="43.5124" lon="6.38536">
        <ele>198.6</ele>
        <time>2014-01-08T14:28:19Z</time>
      </trkpt>
      <trkpt lat="43.51245" lon="6.38528">
        <ele>198.5</ele>
        <time>2014-01-08T14:28:25Z</time>
      </trkpt>
      <trkpt lat="43.51246" lon="6.38527">
        <ele>198.2</ele>
        <time>2014-01-08T14:28:26Z</time>
      </trkpt>
      <trkpt lat="43.51257" lon="6.38512">
        <ele>199</ele>
        <time>2014-01-08T14:28:40Z</time>
      </trkpt>
      <trkpt lat="43.51262" lon="6.38503">
        <ele>198.8</ele>
        <time>2014-01-08T14:28:47Z</time>
      </trkpt>
      <trkpt lat="43.51266" lon="6.38492">
        <ele>198.9</ele>
        <time>2014-01-08T14:28:54Z</time>
      </trkpt>
      <trkpt lat="43.51266" lon="6.38481">
        <ele>200</ele>
        <time>2014-01-08T14:29:06Z</time>
      </trkpt>
      <trkpt lat="43.51268" lon="6.38469">
        <ele>200.7</ele>
        <time>2014-01-08T14:29:17Z</time>
      </trkpt>
      <trkpt lat="43.51269" lon="6.38458">
        <ele>201.4</ele>
        <time>2014-01-08T14:29:27Z</time>
      </trkpt>
      <trkpt lat="43.5127" lon="6.38457">
        <ele>201.8</ele>
        <time>2014-01-08T14:29:28Z</time>
      </trkpt>
      <trkpt lat="43.51269" lon="6.38435">
        <ele>203.6</ele>
        <time>2014-01-08T14:29:52Z</time>
      </trkpt>
      <trkpt lat="43.51272" lon="6.38424">
        <ele>204.2</ele>
        <time>2014-01-08T14:30:01Z</time>
      </trkpt>
      <trkpt lat="43.51275" lon="6.38414">
        <ele>204.4</ele>
        <time>2014-01-08T14:30:09Z</time>
      </trkpt>
      <trkpt lat="43.5128" lon="6.38403">
        <ele>205</ele>
        <time>2014-01-08T14:30:17Z</time>
      </trkpt>
      <trkpt lat="43.51285" lon="6.38394">
        <ele>205.5</ele>
        <time>2014-01-08T14:30:23Z</time>
      </trkpt>
      <trkpt lat="43.51289" lon="6.38384">
        <ele>205.8</ele>
        <time>2014-01-08T14:30:34Z</time>
      </trkpt>
      <trkpt lat="43.5129" lon="6.38383">
        <ele>205.9</ele>
        <time>2014-01-08T14:30:35Z</time>
      </trkpt>
      <trkpt lat="43.51295" lon="6.38363">
        <ele>204.4</ele>
        <time>2014-01-08T14:30:48Z</time>
      </trkpt>
      <trkpt lat="43.513" lon="6.38353">
        <ele>205.9</ele>
        <time>2014-01-08T14:30:57Z</time>
      </trkpt>
      <trkpt lat="43.51297" lon="6.38343">
        <ele>204.8</ele>
        <time>2014-01-08T14:31:09Z</time>
      </trkpt>
      <trkpt lat="43.51292" lon="6.38334">
        <ele>204.8</ele>
        <time>2014-01-08T14:31:15Z</time>
      </trkpt>
      <trkpt lat="43.51289" lon="6.38323">
        <ele>205.3</ele>
        <time>2014-01-08T14:31:21Z</time>
      </trkpt>
      <trkpt lat="43.51288" lon="6.38313">
        <ele>204.4</ele>
        <time>2014-01-08T14:31:27Z</time>
      </trkpt>
      <trkpt lat="43.51288" lon="6.38302">
        <ele>203.7</ele>
        <time>2014-01-08T14:31:34Z</time>
      </trkpt>
      <trkpt lat="43.51288" lon="6.3829">
        <ele>204.2</ele>
        <time>2014-01-08T14:31:41Z</time>
      </trkpt>
      <trkpt lat="43.51288" lon="6.38288">
        <ele>204.5</ele>
        <time>2014-01-08T14:31:42Z</time>
      </trkpt>
      <trkpt lat="43.51288" lon="6.38266">
        <ele>204.6</ele>
        <time>2014-01-08T14:31:55Z</time>
      </trkpt>
      <trkpt lat="43.51288" lon="6.38255">
        <ele>204.9</ele>
        <time>2014-01-08T14:32:02Z</time>
      </trkpt>
      <trkpt lat="43.5129" lon="6.38243">
        <ele>203.7</ele>
        <time>2014-01-08T14:32:09Z</time>
      </trkpt>
      <trkpt lat="43.51294" lon="6.38232">
        <ele>205.2</ele>
        <time>2014-01-08T14:32:16Z</time>
      </trkpt>
      <trkpt lat="43.513" lon="6.38224">
        <ele>204.7</ele>
        <time>2014-01-08T14:32:25Z</time>
      </trkpt>
      <trkpt lat="43.513" lon="6.38213">
        <ele>205.2</ele>
        <time>2014-01-08T14:32:34Z</time>
      </trkpt>
      <trkpt lat="43.513" lon="6.38202">
        <ele>202.7</ele>
        <time>2014-01-08T14:32:46Z</time>
      </trkpt>
      <trkpt lat="43.513" lon="6.382">
        <ele>202.7</ele>
        <time>2014-01-08T14:32:47Z</time>
      </trkpt>
      <trkpt lat="43.51308" lon="6.38182">
        <ele>202.6</ele>
        <time>2014-01-08T14:33:05Z</time>
      </trkpt>
      <trkpt lat="43.51311" lon="6.38171">
        <ele>202.1</ele>
        <time>2014-01-08T14:33:13Z</time>
      </trkpt>
      <trkpt lat="43.51316" lon="6.38161">
        <ele>202.6</ele>
        <time>2014-01-08T14:33:19Z</time>
      </trkpt>
      <trkpt lat="43.51321" lon="6.38151">
        <ele>202.1</ele>
        <time>2014-01-08T14:33:25Z</time>
      </trkpt>
      <trkpt lat="43.51326" lon="6.38143">
        <ele>202.9</ele>
        <time>2014-01-08T14:33:33Z</time>
      </trkpt>
      <trkpt lat="43.51331" lon="6.38134">
        <ele>203.5</ele>
        <time>2014-01-08T14:33:42Z</time>
      </trkpt>
      <trkpt lat="43.51334" lon="6.38123">
        <ele>203.7</ele>
        <time>2014-01-08T14:33:50Z</time>
      </trkpt>
      <trkpt lat="43.51335" lon="6.38122">
        <ele>203.8</ele>
        <time>2014-01-08T14:33:51Z</time>
      </trkpt>
      <trkpt lat="43.51348" lon="6.3811">
        <ele>204.9</ele>
        <time>2014-01-08T14:34:06Z</time>
      </trkpt>
      <trkpt lat="43.51354" lon="6.38102">
        <ele>206</ele>
        <time>2014-01-08T14:34:28Z</time>
      </trkpt>
      <trkpt lat="43.51359" lon="6.38093">
        <ele>206.4</ele>
        <time>2014-01-08T14:34:45Z</time>
      </trkpt>
      <trkpt lat="43.51367" lon="6.38088">
        <ele>205.5</ele>
        <time>2014-01-08T14:34:59Z</time>
      </trkpt>
      <trkpt lat="43.51368" lon="6.38087">
        <ele>205.5</ele>
        <time>2014-01-08T14:35:00Z</time>
      </trkpt>
      <trkpt lat="43.51382" lon="6.38084">
        <ele>206.3</ele>
        <time>2014-01-08T14:35:28Z</time>
      </trkpt>
      <trkpt lat="43.5139" lon="6.38089">
        <ele>207.2</ele>
        <time>2014-01-08T14:35:40Z</time>
      </trkpt>
      <trkpt lat="43.51384" lon="6.3808">
        <ele>206.7</ele>
        <time>2014-01-08T14:38:12Z</time>
      </trkpt>
      <trkpt lat="43.51384" lon="6.3808">
        <ele>206.9</ele>
        <time>2014-01-08T14:38:13Z</time>
      </trkpt>
      <trkpt lat="43.51399" lon="6.38092">
        <ele>207.5</ele>
        <time>2014-01-08T14:39:07Z</time>
      </trkpt>
      <trkpt lat="43.51406" lon="6.38086">
        <ele>208.6</ele>
        <time>2014-01-08T14:40:05Z</time>
      </trkpt>
      <trkpt lat="43.51407" lon="6.38084">
        <ele>208.7</ele>
        <time>2014-01-08T14:40:06Z</time>
      </trkpt>
      <trkpt lat="43.51417" lon="6.38066">
        <ele>207.4</ele>
        <time>2014-01-08T14:40:34Z</time>
      </trkpt>
      <trkpt lat="43.51423" lon="6.38056">
        <ele>206.6</ele>
        <time>2014-01-08T14:41:14Z</time>
      </trkpt>
      <trkpt lat="43.51422" lon="6.38056">
        <ele>206.5</ele>
        <time>2014-01-08T14:41:15Z</time>
      </trkpt>
      <trkpt lat="43.51427" lon="6.38034">
        <ele>206.5</ele>
        <time>2014-01-08T14:43:26Z</time>
      </trkpt>
      <trkpt lat="43.51427" lon="6.38033">
        <ele>206.6</ele>
        <time>2014-01-08T14:43:27Z</time>
      </trkpt>
      <trkpt lat="43.51435" lon="6.38013">
        <ele>208.8</ele>
        <time>2014-01-08T14:43:42Z</time>
      </trkpt>
      <trkpt lat="43.51441" lon="6.38005">
        <ele>208.1</ele>
        <time>2014-01-08T14:43:50Z</time>
      </trkpt>
      <trkpt lat="43.51449" lon="6.38002">
        <ele>207.8</ele>
        <time>2014-01-08T14:43:58Z</time>
      </trkpt>
      <trkpt lat="43.51458" lon="6.38001">
        <ele>209</ele>
        <time>2014-01-08T14:44:06Z</time>
      </trkpt>
      <trkpt lat="43.51466" lon="6.38002">
        <ele>209.7</ele>
        <time>2014-01-08T14:44:14Z</time>
      </trkpt>
      <trkpt lat="43.51472" lon="6.37993">
        <ele>209.1</ele>
        <time>2014-01-08T14:44:22Z</time>
      </trkpt>
      <trkpt lat="43.51477" lon="6.37983">
        <ele>208</ele>
        <time>2014-01-08T14:44:30Z</time>
      </trkpt>
      <trkpt lat="43.51478" lon="6.37981">
        <ele>207.9</ele>
        <time>2014-01-08T14:44:31Z</time>
      </trkpt>
      <trkpt lat="43.51486" lon="6.37964">
        <ele>207.6</ele>
        <time>2014-01-08T14:44:42Z</time>
      </trkpt>
      <trkpt lat="43.51491" lon="6.37955">
        <ele>206.8</ele>
        <time>2014-01-08T14:44:49Z</time>
      </trkpt>
      <trkpt lat="43.51496" lon="6.37945">
        <ele>205.3</ele>
        <time>2014-01-08T14:44:57Z</time>
      </trkpt>
      <trkpt lat="43.51497" lon="6.37934">
        <ele>205.1</ele>
        <time>2014-01-08T14:45:15Z</time>
      </trkpt>
      <trkpt lat="43.51493" lon="6.37923">
        <ele>205</ele>
        <time>2014-01-08T14:45:28Z</time>
      </trkpt>
      <trkpt lat="43.5149" lon="6.37913">
        <ele>204.8</ele>
        <time>2014-01-08T14:45:37Z</time>
      </trkpt>
      <trkpt lat="43.51489" lon="6.37911">
        <ele>204.7</ele>
        <time>2014-01-08T14:45:38Z</time>
      </trkpt>
      <trkpt lat="43.51481" lon="6.37894">
        <ele>204.1</ele>
        <time>2014-01-08T14:45:52Z</time>
      </trkpt>
      <trkpt lat="43.51476" lon="6.37885">
        <ele>204.6</ele>
        <time>2014-01-08T14:46:00Z</time>
      </trkpt>
      <trkpt lat="43.51471" lon="6.37876">
        <ele>204.9</ele>
        <time>2014-01-08T14:46:07Z</time>
      </trkpt>
      <trkpt lat="43.51465" lon="6.37868">
        <ele>205.5</ele>
        <time>2014-01-08T14:46:16Z</time>
      </trkpt>
      <trkpt lat="43.51458" lon="6.37861">
        <ele>204.9</ele>
        <time>2014-01-08T14:46:24Z</time>
      </trkpt>
      <trkpt lat="43.51451" lon="6.37855">
        <ele>205.1</ele>
        <time>2014-01-08T14:46:31Z</time>
      </trkpt>
      <trkpt lat="43.51443" lon="6.37849">
        <ele>204.6</ele>
        <time>2014-01-08T14:46:39Z</time>
      </trkpt>
      <trkpt lat="43.51442" lon="6.37848">
        <ele>205.1</ele>
        <time>2014-01-08T14:46:40Z</time>
      </trkpt>
      <trkpt lat="43.51427" lon="6.37842">
        <ele>205.2</ele>
        <time>2014-01-08T14:46:54Z</time>
      </trkpt>
      <trkpt lat="43.51419" lon="6.37839">
        <ele>205.2</ele>
        <time>2014-01-08T14:47:01Z</time>
      </trkpt>
      <trkpt lat="43.5141" lon="6.37838">
        <ele>205.2</ele>
        <time>2014-01-08T14:47:09Z</time>
      </trkpt>
      <trkpt lat="43.51401" lon="6.37836">
        <ele>204.8</ele>
        <time>2014-01-08T14:47:17Z</time>
      </trkpt>
      <trkpt lat="43.51393" lon="6.37834">
        <ele>206</ele>
        <time>2014-01-08T14:47:26Z</time>
      </trkpt>
      <trkpt lat="43.51384" lon="6.37833">
        <ele>206.5</ele>
        <time>2014-01-08T14:47:36Z</time>
      </trkpt>
      <trkpt lat="43.51376" lon="6.37834">
        <ele>206.6</ele>
        <time>2014-01-08T14:47:43Z</time>
      </trkpt>
      <trkpt lat="43.51375" lon="6.37834">
        <ele>207</ele>
        <time>2014-01-08T14:47:44Z</time>
      </trkpt>
      <trkpt lat="43.5136" lon="6.37838">
        <ele>207.5</ele>
        <time>2014-01-08T14:47:57Z</time>
      </trkpt>
      <trkpt lat="43.51351" lon="6.37841">
        <ele>208.6</ele>
        <time>2014-01-08T14:48:05Z</time>
      </trkpt>
      <trkpt lat="43.51343" lon="6.37844">
        <ele>207.8</ele>
        <time>2014-01-08T14:48:11Z</time>
      </trkpt>
      <trkpt lat="43.51335" lon="6.37846">
        <ele>208.7</ele>
        <time>2014-01-08T14:48:18Z</time>
      </trkpt>
      <trkpt lat="43.51326" lon="6.37849">
        <ele>208.7</ele>
        <time>2014-01-08T14:48:25Z</time>
      </trkpt>
      <trkpt lat="43.51318" lon="6.37853">
        <ele>209.4</ele>
        <time>2014-01-08T14:48:32Z</time>
      </trkpt>
      <trkpt lat="43.5131" lon="6.37855">
        <ele>209</ele>
        <time>2014-01-08T14:48:39Z</time>
      </trkpt>
      <trkpt lat="43.51302" lon="6.37859">
        <ele>208.7</ele>
        <time>2014-01-08T14:48:47Z</time>
      </trkpt>
      <trkpt lat="43.51301" lon="6.3786">
        <ele>209</ele>
        <time>2014-01-08T14:48:48Z</time>
      </trkpt>
      <trkpt lat="43.51287" lon="6.37868">
        <ele>209.6</ele>
        <time>2014-01-08T14:49:02Z</time>
      </trkpt>
      <trkpt lat="43.51278" lon="6.37872">
        <ele>209.6</ele>
        <time>2014-01-08T14:49:08Z</time>
      </trkpt>
      <trkpt lat="43.51271" lon="6.37875">
        <ele>210</ele>
        <time>2014-01-08T14:49:13Z</time>
      </trkpt>
      <trkpt lat="43.51264" lon="6.3788">
        <ele>210</ele>
        <time>2014-01-08T14:49:19Z</time>
      </trkpt>
      <trkpt lat="43.51256" lon="6.37885">
        <ele>209.8</ele>
        <time>2014-01-08T14:49:26Z</time>
      </trkpt>
      <trkpt lat="43.51248" lon="6.3789">
        <ele>210</ele>
        <time>2014-01-08T14:49:33Z</time>
      </trkpt>
      <trkpt lat="43.5124" lon="6.37895">
        <ele>210.9</ele>
        <time>2014-01-08T14:49:39Z</time>
      </trkpt>
      <trkpt lat="43.51233" lon="6.379">
        <ele>211.2</ele>
        <time>2014-01-08T14:49:46Z</time>
      </trkpt>
      <trkpt lat="43.51226" lon="6.37907">
        <ele>210.9</ele>
        <time>2014-01-08T14:49:53Z</time>
      </trkpt>
      <trkpt lat="43.51225" lon="6.37908">
        <ele>211</ele>
        <time>2014-01-08T14:49:54Z</time>
      </trkpt>
      <trkpt lat="43.51213" lon="6.37922">
        <ele>211.9</ele>
        <time>2014-01-08T14:50:06Z</time>
      </trkpt>
      <trkpt lat="43.51208" lon="6.3793">
        <ele>212.4</ele>
        <time>2014-01-08T14:50:17Z</time>
      </trkpt>
      <trkpt lat="43.51201" lon="6.37939">
        <ele>212.1</ele>
        <time>2014-01-08T14:50:54Z</time>
      </trkpt>
      <trkpt lat="43.51201" lon="6.3794">
        <ele>212.2</ele>
        <time>2014-01-08T14:50:55Z</time>
      </trkpt>
      <trkpt lat="43.51202" lon="6.37942">
        <ele>212.3</ele>
        <time>2014-01-08T14:52:10Z</time>
      </trkpt>
      <trkpt lat="43.51203" lon="6.37941">
        <ele>212.4</ele>
        <time>2014-01-08T14:52:11Z</time>
      </trkpt>
      <trkpt lat="43.51196" lon="6.37919">
        <ele>213</ele>
        <time>2014-01-08T14:53:28Z</time>
      </trkpt>
      <trkpt lat="43.51196" lon="6.37919">
        <ele>213</ele>
        <time>2014-01-08T14:53:29Z</time>
      </trkpt>
      <trkpt lat="43.51194" lon="6.37901">
        <ele>217.1</ele>
        <time>2014-01-08T14:54:15Z</time>
      </trkpt>
      <trkpt lat="43.51202" lon="6.379">
        <ele>218.8</ele>
        <time>2014-01-08T14:54:27Z</time>
      </trkpt>
      <trkpt lat="43.51209" lon="6.37893">
        <ele>221.3</ele>
        <time>2014-01-08T14:54:42Z</time>
      </trkpt>
      <trkpt lat="43.51209" lon="6.37892">
        <ele>221.6</ele>
        <time>2014-01-08T14:54:43Z</time>
      </trkpt>
      <trkpt lat="43.51211" lon="6.3787">
        <ele>225.7</ele>
        <time>2014-01-08T14:55:10Z</time>
      </trkpt>
      <trkpt lat="43.5121" lon="6.37858">
        <ele>227.2</ele>
        <time>2014-01-08T14:55:23Z</time>
      </trkpt>
      <trkpt lat="43.51207" lon="6.37847">
        <ele>229.1</ele>
        <time>2014-01-08T14:55:36Z</time>
      </trkpt>
      <trkpt lat="43.51205" lon="6.37836">
        <ele>231</ele>
        <time>2014-01-08T14:55:47Z</time>
      </trkpt>
      <trkpt lat="43.51204" lon="6.37835">
        <ele>231.1</ele>
        <time>2014-01-08T14:55:48Z</time>
      </trkpt>
      <trkpt lat="43.51197" lon="6.37815">
        <ele>233.6</ele>
        <time>2014-01-08T14:56:10Z</time>
      </trkpt>
      <trkpt lat="43.51194" lon="6.37804">
        <ele>234.4</ele>
        <time>2014-01-08T14:56:23Z</time>
      </trkpt>
      <trkpt lat="43.51196" lon="6.37793">
        <ele>235.2</ele>
        <time>2014-01-08T14:56:31Z</time>
      </trkpt>
      <trkpt lat="43.51197" lon="6.37781">
        <ele>235.2</ele>
        <time>2014-01-08T14:56:39Z</time>
      </trkpt>
      <trkpt lat="43.51197" lon="6.3777">
        <ele>235.9</ele>
        <time>2014-01-08T14:56:48Z</time>
      </trkpt>
      <trkpt lat="43.51196" lon="6.37768">
        <ele>236.1</ele>
        <time>2014-01-08T14:56:49Z</time>
      </trkpt>
      <trkpt lat="43.51192" lon="6.37747">
        <ele>238.7</ele>
        <time>2014-01-08T14:57:06Z</time>
      </trkpt>
      <trkpt lat="43.51187" lon="6.37738">
        <ele>240.7</ele>
        <time>2014-01-08T14:57:19Z</time>
      </trkpt>
      <trkpt lat="43.51182" lon="6.37728">
        <ele>243.7</ele>
        <time>2014-01-08T14:57:35Z</time>
      </trkpt>
      <trkpt lat="43.51182" lon="6.37716">
        <ele>245.2</ele>
        <time>2014-01-08T14:57:46Z</time>
      </trkpt>
      <trkpt lat="43.51181" lon="6.37704">
        <ele>248.3</ele>
        <time>2014-01-08T14:58:01Z</time>
      </trkpt>
      <trkpt lat="43.51181" lon="6.37704">
        <ele>248.2</ele>
        <time>2014-01-08T14:58:02Z</time>
      </trkpt>
      <trkpt lat="43.51179" lon="6.3768">
        <ele>252.8</ele>
        <time>2014-01-08T14:58:39Z</time>
      </trkpt>
      <trkpt lat="43.5118" lon="6.37668">
        <ele>255.2</ele>
        <time>2014-01-08T14:58:55Z</time>
      </trkpt>
      <trkpt lat="43.51179" lon="6.37657">
        <ele>258.3</ele>
        <time>2014-01-08T14:59:10Z</time>
      </trkpt>
      <trkpt lat="43.51179" lon="6.37656">
        <ele>258.6</ele>
        <time>2014-01-08T14:59:11Z</time>
      </trkpt>
      <trkpt lat="43.51178" lon="6.37633">
        <ele>263.6</ele>
        <time>2014-01-08T14:59:41Z</time>
      </trkpt>
      <trkpt lat="43.51172" lon="6.37624">
        <ele>266.3</ele>
        <time>2014-01-08T14:59:59Z</time>
      </trkpt>
      <trkpt lat="43.51169" lon="6.37613">
        <ele>269.2</ele>
        <time>2014-01-08T15:00:16Z</time>
      </trkpt>
      <trkpt lat="43.51169" lon="6.37612">
        <ele>269.4</ele>
        <time>2014-01-08T15:00:17Z</time>
      </trkpt>
      <trkpt lat="43.51177" lon="6.37593">
        <ele>271.3</ele>
        <time>2014-01-08T15:00:48Z</time>
      </trkpt>
      <trkpt lat="43.51181" lon="6.37583">
        <ele>272.3</ele>
        <time>2014-01-08T15:00:54Z</time>
      </trkpt>
      <trkpt lat="43.51181" lon="6.37571">
        <ele>274.4</ele>
        <time>2014-01-08T15:01:10Z</time>
      </trkpt>
      <trkpt lat="43.51176" lon="6.37561">
        <ele>276</ele>
        <time>2014-01-08T15:01:25Z</time>
      </trkpt>
      <trkpt lat="43.51176" lon="6.37561">
        <ele>276.4</ele>
        <time>2014-01-08T15:01:26Z</time>
      </trkpt>
      <trkpt lat="43.51162" lon="6.37548">
        <ele>281.5</ele>
        <time>2014-01-08T15:02:00Z</time>
      </trkpt>
      <trkpt lat="43.51159" lon="6.37537">
        <ele>283</ele>
        <time>2014-01-08T15:02:10Z</time>
      </trkpt>
      <trkpt lat="43.51153" lon="6.37528">
        <ele>283.8</ele>
        <time>2014-01-08T15:02:23Z</time>
      </trkpt>
      <trkpt lat="43.51146" lon="6.37522">
        <ele>285.3</ele>
        <time>2014-01-08T15:02:35Z</time>
      </trkpt>
      <trkpt lat="43.51146" lon="6.37521">
        <ele>285.6</ele>
        <time>2014-01-08T15:02:36Z</time>
      </trkpt>
      <trkpt lat="43.51141" lon="6.37503">
        <ele>287.7</ele>
        <time>2014-01-08T15:02:58Z</time>
      </trkpt>
      <trkpt lat="43.51139" lon="6.37491">
        <ele>288</ele>
        <time>2014-01-08T15:03:18Z</time>
      </trkpt>
      <trkpt lat="43.51139" lon="6.37479">
        <ele>288.7</ele>
        <time>2014-01-08T15:03:39Z</time>
      </trkpt>
      <trkpt lat="43.51139" lon="6.37478">
        <ele>288.7</ele>
        <time>2014-01-08T15:03:40Z</time>
      </trkpt>
      <trkpt lat="43.51124" lon="6.37468">
        <ele>290.2</ele>
        <time>2014-01-08T15:04:50Z</time>
      </trkpt>
      <trkpt lat="43.51124" lon="6.37467">
        <ele>290.4</ele>
        <time>2014-01-08T15:04:51Z</time>
      </trkpt>
      <trkpt lat="43.5111" lon="6.37454">
        <ele>290.7</ele>
        <time>2014-01-08T15:05:11Z</time>
      </trkpt>
      <trkpt lat="43.51103" lon="6.37449">
        <ele>291</ele>
        <time>2014-01-08T15:05:23Z</time>
      </trkpt>
      <trkpt lat="43.51096" lon="6.37442">
        <ele>290.9</ele>
        <time>2014-01-08T15:05:30Z</time>
      </trkpt>
      <trkpt lat="43.51087" lon="6.3744">
        <ele>291.2</ele>
        <time>2014-01-08T15:05:39Z</time>
      </trkpt>
      <trkpt lat="43.51079" lon="6.37436">
        <ele>290.6</ele>
        <time>2014-01-08T15:05:50Z</time>
      </trkpt>
      <trkpt lat="43.5107" lon="6.37434">
        <ele>290.5</ele>
        <time>2014-01-08T15:06:01Z</time>
      </trkpt>
      <trkpt lat="43.51069" lon="6.37433">
        <ele>290.4</ele>
        <time>2014-01-08T15:06:02Z</time>
      </trkpt>
      <trkpt lat="43.51056" lon="6.37419">
        <ele>290.9</ele>
        <time>2014-01-08T15:06:22Z</time>
      </trkpt>
      <trkpt lat="43.5105" lon="6.3741">
        <ele>290.8</ele>
        <time>2014-01-08T15:06:30Z</time>
      </trkpt>
      <trkpt lat="43.51046" lon="6.374">
        <ele>289.9</ele>
        <time>2014-01-08T15:06:40Z</time>
      </trkpt>
      <trkpt lat="43.51043" lon="6.37389">
        <ele>290.6</ele>
        <time>2014-01-08T15:06:49Z</time>
      </trkpt>
      <trkpt lat="43.5104" lon="6.37377">
        <ele>290.6</ele>
        <time>2014-01-08T15:07:01Z</time>
      </trkpt>
      <trkpt lat="43.51036" lon="6.37367">
        <ele>290</ele>
        <time>2014-01-08T15:07:14Z</time>
      </trkpt>
      <trkpt lat="43.51035" lon="6.37366">
        <ele>290</ele>
        <time>2014-01-08T15:07:15Z</time>
      </trkpt>
      <trkpt lat="43.51024" lon="6.3735">
        <ele>290.4</ele>
        <time>2014-01-08T15:07:33Z</time>
      </trkpt>
      <trkpt lat="43.5102" lon="6.37339">
        <ele>289.9</ele>
        <time>2014-01-08T15:07:41Z</time>
      </trkpt>
      <trkpt lat="43.51013" lon="6.37332">
        <ele>289.4</ele>
        <time>2014-01-08T15:07:52Z</time>
      </trkpt>
      <trkpt lat="43.51006" lon="6.37327">
        <ele>289</ele>
        <time>2014-01-08T15:08:01Z</time>
      </trkpt>
      <trkpt lat="43.50999" lon="6.37321">
        <ele>289.1</ele>
        <time>2014-01-08T15:08:09Z</time>
      </trkpt>
      <trkpt lat="43.50992" lon="6.37316">
        <ele>289</ele>
        <time>2014-01-08T15:08:16Z</time>
      </trkpt>
      <trkpt lat="43.5099" lon="6.37316">
        <ele>288.9</ele>
        <time>2014-01-08T15:08:17Z</time>
      </trkpt>
      <trkpt lat="43.50976" lon="6.37307">
        <ele>289.8</ele>
        <time>2014-01-08T15:08:34Z</time>
      </trkpt>
      <trkpt lat="43.50968" lon="6.37301">
        <ele>288.4</ele>
        <time>2014-01-08T15:08:43Z</time>
      </trkpt>
      <trkpt lat="43.50961" lon="6.37296">
        <ele>288.1</ele>
        <time>2014-01-08T15:08:52Z</time>
      </trkpt>
      <trkpt lat="43.50953" lon="6.37294">
        <ele>288</ele>
        <time>2014-01-08T15:08:59Z</time>
      </trkpt>
      <trkpt lat="43.50946" lon="6.37288">
        <ele>286.9</ele>
        <time>2014-01-08T15:09:08Z</time>
      </trkpt>
      <trkpt lat="43.5094" lon="6.37279">
        <ele>287.8</ele>
        <time>2014-01-08T15:09:25Z</time>
      </trkpt>
      <trkpt lat="43.5094" lon="6.37278">
        <ele>287.7</ele>
        <time>2014-01-08T15:09:26Z</time>
      </trkpt>
      <trkpt lat="43.50931" lon="6.37276">
        <ele>288.6</ele>
        <time>2014-01-08T15:10:42Z</time>
      </trkpt>
      <trkpt lat="43.50917" lon="6.37269">
        <ele>289.7</ele>
        <time>2014-01-08T15:11:06Z</time>
      </trkpt>
      <trkpt lat="43.50909" lon="6.37265">
        <ele>289.8</ele>
        <time>2014-01-08T15:11:15Z</time>
      </trkpt>
      <trkpt lat="43.50901" lon="6.37261">
        <ele>290.2</ele>
        <time>2014-01-08T15:11:22Z</time>
      </trkpt>
      <trkpt lat="43.50892" lon="6.3726">
        <ele>290.6</ele>
        <time>2014-01-08T15:11:31Z</time>
      </trkpt>
      <trkpt lat="43.50884" lon="6.37256">
        <ele>291</ele>
        <time>2014-01-08T15:11:40Z</time>
      </trkpt>
      <trkpt lat="43.50876" lon="6.37251">
        <ele>291.9</ele>
        <time>2014-01-08T15:11:48Z</time>
      </trkpt>
      <trkpt lat="43.50876" lon="6.3725">
        <ele>292</ele>
        <time>2014-01-08T15:11:49Z</time>
      </trkpt>
      <trkpt lat="43.50862" lon="6.37238">
        <ele>292.9</ele>
        <time>2014-01-08T15:12:05Z</time>
      </trkpt>
      <trkpt lat="43.50857" lon="6.37228">
        <ele>292.7</ele>
        <time>2014-01-08T15:12:39Z</time>
      </trkpt>
      <trkpt lat="43.50853" lon="6.37217">
        <ele>293</ele>
        <time>2014-01-08T15:13:57Z</time>
      </trkpt>
      <trkpt lat="43.50853" lon="6.37216">
        <ele>293.2</ele>
        <time>2014-01-08T15:13:58Z</time>
      </trkpt>
      <trkpt lat="43.50854" lon="6.37193">
        <ele>293.6</ele>
        <time>2014-01-08T15:14:18Z</time>
      </trkpt>
      <trkpt lat="43.50851" lon="6.37182">
        <ele>293.6</ele>
        <time>2014-01-08T15:16:51Z</time>
      </trkpt>
      <trkpt lat="43.5085" lon="6.37181">
        <ele>293.4</ele>
        <time>2014-01-08T15:16:52Z</time>
      </trkpt>
      <trkpt lat="43.50849" lon="6.37159">
        <ele>295.5</ele>
        <time>2014-01-08T15:17:07Z</time>
      </trkpt>
      <trkpt lat="43.50847" lon="6.37147">
        <ele>296.2</ele>
        <time>2014-01-08T15:17:15Z</time>
      </trkpt>
      <trkpt lat="43.50846" lon="6.37136">
        <ele>296</ele>
        <time>2014-01-08T15:17:22Z</time>
      </trkpt>
      <trkpt lat="43.50844" lon="6.37125">
        <ele>295.9</ele>
        <time>2014-01-08T15:17:29Z</time>
      </trkpt>
      <trkpt lat="43.50836" lon="6.37123">
        <ele>296</ele>
        <time>2014-01-08T15:17:43Z</time>
      </trkpt>
      <trkpt lat="43.50828" lon="6.37125">
        <ele>295.8</ele>
        <time>2014-01-08T15:17:52Z</time>
      </trkpt>
      <trkpt lat="43.50827" lon="6.37126">
        <ele>296.1</ele>
        <time>2014-01-08T15:17:53Z</time>
      </trkpt>
      <trkpt lat="43.50811" lon="6.37131">
        <ele>297.5</ele>
        <time>2014-01-08T15:18:07Z</time>
      </trkpt>
      <trkpt lat="43.50803" lon="6.37132">
        <ele>298</ele>
        <time>2014-01-08T15:18:12Z</time>
      </trkpt>
      <trkpt lat="43.50794" lon="6.37134">
        <ele>298.4</ele>
        <time>2014-01-08T15:18:18Z</time>
      </trkpt>
      <trkpt lat="43.50786" lon="6.37136">
        <ele>299.2</ele>
        <time>2014-01-08T15:18:25Z</time>
      </trkpt>
      <trkpt lat="43.50777" lon="6.37137">
        <ele>300.2</ele>
        <time>2014-01-08T15:18:33Z</time>
      </trkpt>
      <trkpt lat="43.50769" lon="6.37137">
        <ele>299.7</ele>
        <time>2014-01-08T15:18:44Z</time>
      </trkpt>
      <trkpt lat="43.5076" lon="6.37139">
        <ele>300.1</ele>
        <time>2014-01-08T15:18:55Z</time>
      </trkpt>
      <trkpt lat="43.5076" lon="6.3714">
        <ele>300.2</ele>
        <time>2014-01-08T15:18:56Z</time>
      </trkpt>
      <trkpt lat="43.50744" lon="6.37145">
        <ele>301.2</ele>
        <time>2014-01-08T15:19:18Z</time>
      </trkpt>
      <trkpt lat="43.50736" lon="6.37148">
        <ele>301.3</ele>
        <time>2014-01-08T15:19:26Z</time>
      </trkpt>
      <trkpt lat="43.50728" lon="6.3715">
        <ele>301.3</ele>
        <time>2014-01-08T15:19:34Z</time>
      </trkpt>
      <trkpt lat="43.50719" lon="6.37151">
        <ele>301.5</ele>
        <time>2014-01-08T15:19:41Z</time>
      </trkpt>
      <trkpt lat="43.50711" lon="6.37152">
        <ele>302.2</ele>
        <time>2014-01-08T15:19:48Z</time>
      </trkpt>
      <trkpt lat="43.50703" lon="6.37154">
        <ele>302.9</ele>
        <time>2014-01-08T15:19:56Z</time>
      </trkpt>
      <trkpt lat="43.50702" lon="6.37154">
        <ele>303</ele>
        <time>2014-01-08T15:19:57Z</time>
      </trkpt>
      <trkpt lat="43.50686" lon="6.37156">
        <ele>305.6</ele>
        <time>2014-01-08T15:20:18Z</time>
      </trkpt>
      <trkpt lat="43.50677" lon="6.37157">
        <ele>306.3</ele>
        <time>2014-01-08T15:20:30Z</time>
      </trkpt>
      <trkpt lat="43.50669" lon="6.37155">
        <ele>307.9</ele>
        <time>2014-01-08T15:20:40Z</time>
      </trkpt>
      <trkpt lat="43.50661" lon="6.37151">
        <ele>309.6</ele>
        <time>2014-01-08T15:20:51Z</time>
      </trkpt>
      <trkpt lat="43.50653" lon="6.37148">
        <ele>310.9</ele>
        <time>2014-01-08T15:20:59Z</time>
      </trkpt>
      <trkpt lat="43.50652" lon="6.37147">
        <ele>311.2</ele>
        <time>2014-01-08T15:21:00Z</time>
      </trkpt>
      <trkpt lat="43.50637" lon="6.37143">
        <ele>313.4</ele>
        <time>2014-01-08T15:21:19Z</time>
      </trkpt>
      <trkpt lat="43.50629" lon="6.37138">
        <ele>313.9</ele>
        <time>2014-01-08T15:21:31Z</time>
      </trkpt>
      <trkpt lat="43.50621" lon="6.37134">
        <ele>313.9</ele>
        <time>2014-01-08T15:21:42Z</time>
      </trkpt>
      <trkpt lat="43.50614" lon="6.3713">
        <ele>314.5</ele>
        <time>2014-01-08T15:21:51Z</time>
      </trkpt>
      <trkpt lat="43.50605" lon="6.37128">
        <ele>313.8</ele>
        <time>2014-01-08T15:21:57Z</time>
      </trkpt>
      <trkpt lat="43.50598" lon="6.37123">
        <ele>313.8</ele>
        <time>2014-01-08T15:22:04Z</time>
      </trkpt>
      <trkpt lat="43.50596" lon="6.37123">
        <ele>313.9</ele>
        <time>2014-01-08T15:22:05Z</time>
      </trkpt>
      <trkpt lat="43.50582" lon="6.37114">
        <ele>312.6</ele>
        <time>2014-01-08T15:22:19Z</time>
      </trkpt>
      <trkpt lat="43.50574" lon="6.37111">
        <ele>312.8</ele>
        <time>2014-01-08T15:22:27Z</time>
      </trkpt>
      <trkpt lat="43.50566" lon="6.37109">
        <ele>312.8</ele>
        <time>2014-01-08T15:22:34Z</time>
      </trkpt>
      <trkpt lat="43.50558" lon="6.37108">
        <ele>312.9</ele>
        <time>2014-01-08T15:22:54Z</time>
      </trkpt>
      <trkpt lat="43.50549" lon="6.37109">
        <ele>313.7</ele>
        <time>2014-01-08T15:23:22Z</time>
      </trkpt>
      <trkpt lat="43.50548" lon="6.37109">
        <ele>313.8</ele>
        <time>2014-01-08T15:23:23Z</time>
      </trkpt>
      <trkpt lat="43.50532" lon="6.37106">
        <ele>313.4</ele>
        <time>2014-01-08T15:23:48Z</time>
      </trkpt>
      <trkpt lat="43.50525" lon="6.37112">
        <ele>314.1</ele>
        <time>2014-01-08T15:24:00Z</time>
      </trkpt>
      <trkpt lat="43.50521" lon="6.37122">
        <ele>315.8</ele>
        <time>2014-01-08T15:24:23Z</time>
      </trkpt>
      <trkpt lat="43.5052" lon="6.37123">
        <ele>315.7</ele>
        <time>2014-01-08T15:24:24Z</time>
      </trkpt>
      <trkpt lat="43.50511" lon="6.37143">
        <ele>316.6</ele>
        <time>2014-01-08T15:25:27Z</time>
      </trkpt>
      <trkpt lat="43.50511" lon="6.37143">
        <ele>316.5</ele>
        <time>2014-01-08T15:25:28Z</time>
      </trkpt>
      <trkpt lat="43.50507" lon="6.37154">
        <ele>315.1</ele>
        <time>2014-01-08T15:33:04Z</time>
      </trkpt>
      <trkpt lat="43.50505" lon="6.37177">
        <ele>314.6</ele>
        <time>2014-01-08T15:33:26Z</time>
      </trkpt>
      <trkpt lat="43.50504" lon="6.37188">
        <ele>315.3</ele>
        <time>2014-01-08T15:33:34Z</time>
      </trkpt>
      <trkpt lat="43.50501" lon="6.372">
        <ele>313.7</ele>
        <time>2014-01-08T15:33:43Z</time>
      </trkpt>
      <trkpt lat="43.50501" lon="6.37212">
        <ele>313.6</ele>
        <time>2014-01-08T15:33:54Z</time>
      </trkpt>
      <trkpt lat="43.505" lon="6.37224">
        <ele>314.8</ele>
        <time>2014-01-08T15:34:03Z</time>
      </trkpt>
      <trkpt lat="43.50497" lon="6.37235">
        <ele>314.7</ele>
        <time>2014-01-08T15:34:13Z</time>
      </trkpt>
      <trkpt lat="43.50497" lon="6.37236">
        <ele>314.8</ele>
        <time>2014-01-08T15:34:14Z</time>
      </trkpt>
      <trkpt lat="43.50488" lon="6.37254">
        <ele>314.6</ele>
        <time>2014-01-08T15:34:47Z</time>
      </trkpt>
      <trkpt lat="43.50481" lon="6.37261">
        <ele>314.6</ele>
        <time>2014-01-08T15:34:55Z</time>
      </trkpt>
      <trkpt lat="43.50474" lon="6.37268">
        <ele>315.2</ele>
        <time>2014-01-08T15:35:04Z</time>
      </trkpt>
      <trkpt lat="43.50469" lon="6.37277">
        <ele>318</ele>
        <time>2014-01-08T15:35:15Z</time>
      </trkpt>
      <trkpt lat="43.50469" lon="6.37278">
        <ele>318</ele>
        <time>2014-01-08T15:35:16Z</time>
      </trkpt>
      <trkpt lat="43.50459" lon="6.37295">
        <ele>316.6</ele>
        <time>2014-01-08T15:35:33Z</time>
      </trkpt>
      <trkpt lat="43.50452" lon="6.37301">
        <ele>314.9</ele>
        <time>2014-01-08T15:35:44Z</time>
      </trkpt>
      <trkpt lat="43.50445" lon="6.37306">
        <ele>314.2</ele>
        <time>2014-01-08T15:35:53Z</time>
      </trkpt>
      <trkpt lat="43.50436" lon="6.37306">
        <ele>312.9</ele>
        <time>2014-01-08T15:36:04Z</time>
      </trkpt>
      <trkpt lat="43.50428" lon="6.37311">
        <ele>313.2</ele>
        <time>2014-01-08T15:36:14Z</time>
      </trkpt>
      <trkpt lat="43.50422" lon="6.3732">
        <ele>312.7</ele>
        <time>2014-01-08T15:36:22Z</time>
      </trkpt>
      <trkpt lat="43.50421" lon="6.37321">
        <ele>312.6</ele>
        <time>2014-01-08T15:36:23Z</time>
      </trkpt>
      <trkpt lat="43.5041" lon="6.37338">
        <ele>313.3</ele>
        <time>2014-01-08T15:36:42Z</time>
      </trkpt>
      <trkpt lat="43.50405" lon="6.37347">
        <ele>313.1</ele>
        <time>2014-01-08T15:36:58Z</time>
      </trkpt>
      <trkpt lat="43.504" lon="6.37357">
        <ele>313.4</ele>
        <time>2014-01-08T15:37:11Z</time>
      </trkpt>
      <trkpt lat="43.50398" lon="6.37368">
        <ele>313.1</ele>
        <time>2014-01-08T15:37:30Z</time>
      </trkpt>
      <trkpt lat="43.50397" lon="6.37369">
        <ele>313.2</ele>
        <time>2014-01-08T15:37:31Z</time>
      </trkpt>
      <trkpt lat="43.50388" lon="6.37387">
        <ele>313.1</ele>
        <time>2014-01-08T15:37:46Z</time>
      </trkpt>
      <trkpt lat="43.50384" lon="6.37397">
        <ele>312.4</ele>
        <time>2014-01-08T15:37:54Z</time>
      </trkpt>
      <trkpt lat="43.50381" lon="6.37408">
        <ele>311.1</ele>
        <time>2014-01-08T15:38:04Z</time>
      </trkpt>
      <trkpt lat="43.50379" lon="6.37419">
        <ele>312.4</ele>
        <time>2014-01-08T15:38:14Z</time>
      </trkpt>
      <trkpt lat="43.50376" lon="6.3743">
        <ele>311.4</ele>
        <time>2014-01-08T15:38:22Z</time>
      </trkpt>
      <trkpt lat="43.50376" lon="6.37442">
        <ele>311.7</ele>
        <time>2014-01-08T15:38:29Z</time>
      </trkpt>
      <trkpt lat="43.50377" lon="6.37454">
        <ele>311.1</ele>
        <time>2014-01-08T15:38:37Z</time>
      </trkpt>
      <trkpt lat="43.50376" lon="6.37455">
        <ele>310.9</ele>
        <time>2014-01-08T15:38:38Z</time>
      </trkpt>
      <trkpt lat="43.50372" lon="6.37477">
        <ele>310</ele>
        <time>2014-01-08T15:39:15Z</time>
      </trkpt>
      <trkpt lat="43.50363" lon="6.37475">
        <ele>308.7</ele>
        <time>2014-01-08T15:39:38Z</time>
      </trkpt>
      <trkpt lat="43.50363" lon="6.37474">
        <ele>308.5</ele>
        <time>2014-01-08T15:39:39Z</time>
      </trkpt>
      <trkpt lat="43.50348" lon="6.37469">
        <ele>306.3</ele>
        <time>2014-01-08T15:39:55Z</time>
      </trkpt>
      <trkpt lat="43.5034" lon="6.37468">
        <ele>304.4</ele>
        <time>2014-01-08T15:40:01Z</time>
      </trkpt>
      <trkpt lat="43.50332" lon="6.37465">
        <ele>302.6</ele>
        <time>2014-01-08T15:40:09Z</time>
      </trkpt>
      <trkpt lat="43.50323" lon="6.37463">
        <ele>300.5</ele>
        <time>2014-01-08T15:40:16Z</time>
      </trkpt>
      <trkpt lat="43.50315" lon="6.37459">
        <ele>299.2</ele>
        <time>2014-01-08T15:40:25Z</time>
      </trkpt>
      <trkpt lat="43.50308" lon="6.37456">
        <ele>298.4</ele>
        <time>2014-01-08T15:40:32Z</time>
      </trkpt>
      <trkpt lat="43.503" lon="6.37453">
        <ele>296.1</ele>
        <time>2014-01-08T15:40:40Z</time>
      </trkpt>
      <trkpt lat="43.50299" lon="6.37453">
        <ele>296.1</ele>
        <time>2014-01-08T15:40:41Z</time>
      </trkpt>
      <trkpt lat="43.50283" lon="6.37448">
        <ele>293.3</ele>
        <time>2014-01-08T15:40:57Z</time>
      </trkpt>
      <trkpt lat="43.50274" lon="6.37446">
        <ele>293</ele>
        <time>2014-01-08T15:41:04Z</time>
      </trkpt>
      <trkpt lat="43.50266" lon="6.37443">
        <ele>291.3</ele>
        <time>2014-01-08T15:41:13Z</time>
      </trkpt>
      <trkpt lat="43.50258" lon="6.37439">
        <ele>291.7</ele>
        <time>2014-01-08T15:41:21Z</time>
      </trkpt>
      <trkpt lat="43.50249" lon="6.37437">
        <ele>290.2</ele>
        <time>2014-01-08T15:41:30Z</time>
      </trkpt>
      <trkpt lat="43.50241" lon="6.37435">
        <ele>290.2</ele>
        <time>2014-01-08T15:41:36Z</time>
      </trkpt>
      <trkpt lat="43.50234" lon="6.37433">
        <ele>290.3</ele>
        <time>2014-01-08T15:41:41Z</time>
      </trkpt>
      <trkpt lat="43.50232" lon="6.37432">
        <ele>290</ele>
        <time>2014-01-08T15:41:42Z</time>
      </trkpt>
      <trkpt lat="43.50217" lon="6.3743">
        <ele>288.9</ele>
        <time>2014-01-08T15:41:54Z</time>
      </trkpt>
      <trkpt lat="43.50208" lon="6.37428">
        <ele>288.3</ele>
        <time>2014-01-08T15:42:00Z</time>
      </trkpt>
      <trkpt lat="43.50201" lon="6.37424">
        <ele>287.8</ele>
        <time>2014-01-08T15:42:10Z</time>
      </trkpt>
      <trkpt lat="43.50193" lon="6.37419">
        <ele>287.3</ele>
        <time>2014-01-08T15:42:18Z</time>
      </trkpt>
      <trkpt lat="43.50187" lon="6.37413">
        <ele>285.9</ele>
        <time>2014-01-08T15:42:25Z</time>
      </trkpt>
      <trkpt lat="43.5018" lon="6.37406">
        <ele>284.3</ele>
        <time>2014-01-08T15:42:32Z</time>
      </trkpt>
      <trkpt lat="43.50172" lon="6.374">
        <ele>281.8</ele>
        <time>2014-01-08T15:42:40Z</time>
      </trkpt>
      <trkpt lat="43.50165" lon="6.37394">
        <ele>280.5</ele>
        <time>2014-01-08T15:42:48Z</time>
      </trkpt>
      <trkpt lat="43.50164" lon="6.37393">
        <ele>280</ele>
        <time>2014-01-08T15:42:49Z</time>
      </trkpt>
      <trkpt lat="43.50151" lon="6.3738">
        <ele>277.3</ele>
        <time>2014-01-08T15:43:03Z</time>
      </trkpt>
      <trkpt lat="43.50144" lon="6.37374">
        <ele>275.1</ele>
        <time>2014-01-08T15:43:10Z</time>
      </trkpt>
      <trkpt lat="43.50136" lon="6.37372">
        <ele>273.5</ele>
        <time>2014-01-08T15:43:19Z</time>
      </trkpt>
      <trkpt lat="43.50131" lon="6.37362">
        <ele>271.7</ele>
        <time>2014-01-08T15:43:30Z</time>
      </trkpt>
      <trkpt lat="43.50128" lon="6.37351">
        <ele>270.7</ele>
        <time>2014-01-08T15:43:39Z</time>
      </trkpt>
      <trkpt lat="43.50126" lon="6.3734">
        <ele>270.3</ele>
        <time>2014-01-08T15:43:47Z</time>
      </trkpt>
      <trkpt lat="43.50123" lon="6.37329">
        <ele>269</ele>
        <time>2014-01-08T15:43:55Z</time>
      </trkpt>
      <trkpt lat="43.50122" lon="6.37328">
        <ele>268.9</ele>
        <time>2014-01-08T15:43:56Z</time>
      </trkpt>
      <trkpt lat="43.50109" lon="6.37339">
        <ele>272.4</ele>
        <time>2014-01-08T15:44:15Z</time>
      </trkpt>
      <trkpt lat="43.50104" lon="6.37348">
        <ele>272.2</ele>
        <time>2014-01-08T15:44:24Z</time>
      </trkpt>
      <trkpt lat="43.50099" lon="6.37358">
        <ele>272.5</ele>
        <time>2014-01-08T15:44:36Z</time>
      </trkpt>
      <trkpt lat="43.50093" lon="6.37367">
        <ele>273.6</ele>
        <time>2014-01-08T15:44:48Z</time>
      </trkpt>
      <trkpt lat="43.50089" lon="6.37377">
        <ele>273.1</ele>
        <time>2014-01-08T15:45:01Z</time>
      </trkpt>
      <trkpt lat="43.50089" lon="6.37378">
        <ele>273.1</ele>
        <time>2014-01-08T15:45:02Z</time>
      </trkpt>
    </trkseg>
  </trk>
</gpx>